NOAA Web Site Link Tides and Currents Home Page Transparent placeholder image

PORTS® Data Listing: 8639348 Money Point, VA

CO-OPS RAW PORTS DATA

************************      PRELIMINARY DATA      ************************** 

     THIS RAW DATA HAS NOT BEEN SUBJECT TO THE NATIONAL OCEAN SERVICE'S        
     QUALITY CONTROL OR QUALITY ASSURANCE PROCEDURES AND DOES NOT MEET         
     THE CRITERIA AND STANDARDS OF OFFICIAL NATIONAL OCEAN SERVICE             
     DATA.  IT IS RELEASED FOR LIMITED PUBLIC USE AS PRELIMINARY DATA TO       
     BE USED ONLY WITH APPROPRIATE CAUTION.                                    

************************      PRELIMINARY DATA      ************************** 


       CD   -   Calendar date
       T    -   Time
       TZ   -   Timezone
       PW   -   Predicted water level (feet above MLLW)
       OW   -   Observed water level (feet above MLLW)
       WS   -   Wind speed (knots)
       WD   -   Wind direction (degrees true)
       WG   -   Wind gust (knots)
       AT   -   Air temperature (degrees farenheit)
       WT   -   Water temperature (degrees farenheit)
       AP   -   Air pressure (millibars)
       SA   -   Salinty (PSU - Practical Salinity Units)
       SG   -   Specific gravity
       RH   -   Relative humidity
       AG   -   Air gap (feet)
       VI   -   Visibility (nautical miles)

       ** NOTE **
       A variable that has its data fields filled with "9"s, indicates that
       data was not collected for that sample period.
       **********


STATION NAME: Money Point (8639348)
****************************************************************************************************
    CD       T    TZ    PW     OW    WS   WD   WG    AT    WT    AP    SA    SG     RH    AG   VI
****************************************************************************************************
2019/06/17 12:24 EDT    2.02   2.10    9  240   13  87.6  77.7 1015.9 14.5  1.009 -99.9 -99.99 -9.99
2019/06/17 12:30 EDT    1.95   2.04    6  224   12  87.8  77.9 1015.9 14.7  1.009 -99.9 -99.99 -9.99
2019/06/17 12:36 EDT    1.89   2.00    6  229   11  87.8  77.5 1015.9 15.0  1.009 -99.9 -99.99 -9.99
2019/06/17 12:42 EDT    1.82   1.93    9  280   13  87.8  77.7 1015.9 14.8  1.009 -99.9 -99.99 -9.99
2019/06/17 12:48 EDT    1.75   1.89    5  235   15  88.5  77.9 1015.9 14.8  1.009 -99.9 -99.99 -9.99
2019/06/17 12:54 EDT    1.69   1.84    7  290   10  88.2  78.1 1015.9 14.5  1.009 -99.9 -99.99 -9.99
2019/06/17 13:00 EDT    1.61   1.78   10  257   11  88.3  78.1 1015.9 14.5  1.009 -99.9 -99.99 -9.99
2019/06/17 13:06 EDT    1.54   1.71    7  265   11  88.3  77.9 1015.9 14.6  1.009 -99.9 -99.99 -9.99
2019/06/17 13:12 EDT    1.47   1.67    5  249   12  88.9  77.7 1015.8 14.7  1.009 -99.9 -99.99 -9.99
2019/06/17 13:18 EDT    1.40   1.61    6  227    8  88.9  78.1 1015.8 14.5  1.009 -99.9 -99.99 -9.99
2019/06/17 13:24 EDT    1.33   1.53    8  261   12  88.9  77.9 1015.8 14.6  1.009 -99.9 -99.99 -9.99
2019/06/17 13:30 EDT    1.25   1.47    8  238   12  89.1  78.6 1015.8 14.2  1.008 -99.9 -99.99 -9.99
2019/06/17 13:36 EDT    1.18   1.40    8  265   13  89.1  78.3 1015.7 14.4  1.009 -99.9 -99.99 -9.99
2019/06/17 13:42 EDT    1.11   1.34    7  240   11  89.4  78.8 1015.7 14.1  1.008 -99.9 -99.99 -9.99
2019/06/17 13:48 EDT    1.04   1.28    5  239   11  89.4  78.3 1015.6 14.5  1.009 -99.9 -99.99 -9.99
2019/06/17 13:54 EDT    0.96   1.19    8  272   11  89.1  78.1 1015.5 14.6  1.009 -99.9 -99.99 -9.99
2019/06/17 14:00 EDT    0.89   1.11    8  274   13  89.4  78.1 1015.4 14.5  1.009 -99.9 -99.99 -9.99
2019/06/17 14:06 EDT    0.82   1.05    8  268   11  89.6  78.8 1015.5 14.2  1.008 -99.9 -99.99 -9.99
2019/06/17 14:12 EDT    0.76   0.98   10  276   13  89.8  78.6 1015.4 14.3  1.008 -99.9 -99.99 -9.99
2019/06/17 14:18 EDT    0.69   0.91   10  254   13  90.0  79.3 1015.4 14.0  1.008 -99.9 -99.99 -9.99
2019/06/17 14:24 EDT    0.62   0.85    7  259   14  90.0  79.0 1015.3 14.1  1.008 -99.9 -99.99 -9.99
2019/06/17 14:30 EDT    0.56   0.77    6  271   11  90.0  78.6 1015.3 14.3  1.008 -99.9 -99.99 -9.99
2019/06/17 14:36 EDT    0.50   0.70   10  271   15  89.8  78.8 1015.3 14.1  1.008 -99.9 -99.99 -9.99
2019/06/17 14:42 EDT    0.45   0.64    9  291   12  90.0  79.5 1015.3 14.0  1.008 -99.9 -99.99 -9.99
2019/06/17 14:48 EDT    0.39   0.59    7  248   10  90.3  79.9 1015.3 13.9  1.008 -99.9 -99.99 -9.99
2019/06/17 14:54 EDT    0.34   0.54    6  252   12  90.7  80.6 1015.3 13.8  1.008 -99.9 -99.99 -9.99
2019/06/17 15:00 EDT    0.29   0.46   10  256   14  90.9  79.7 1015.3 13.6  1.008 -99.9 -99.99 -9.99
2019/06/17 15:06 EDT    0.25   0.42    9  252   12  90.7  79.5 1015.2 13.5  1.008 -99.9 -99.99 -9.99
2019/06/17 15:12 EDT    0.21   0.37    9  247   15  90.5  79.3 1015.2 13.7  1.008 -99.9 -99.99 -9.99
2019/06/17 15:18 EDT    0.17   0.31    8  289   13  90.1  79.3 1015.0 13.7  1.008 -99.9 -99.99 -9.99
2019/06/17 15:24 EDT    0.13   0.28    7  255   10  90.3  79.2 1015.0 13.7  1.008 -99.9 -99.99 -9.99
2019/06/17 15:30 EDT    0.10   0.24    8  255   12  90.5  79.2 1015.0 13.6  1.008 -99.9 -99.99 -9.99
2019/06/17 15:36 EDT    0.08   0.20    7  230   11  90.5  79.2 1014.9 13.5  1.008 -99.9 -99.99 -9.99
2019/06/17 15:42 EDT    0.06   0.16    4  252    9  90.9  79.5 1015.0 13.4  1.008 -99.9 -99.99 -9.99
2019/06/17 15:48 EDT    0.04   0.14    7  257   11  90.9  79.5 1014.9 13.7  1.008 -99.9 -99.99 -9.99
2019/06/17 15:54 EDT    0.03   0.11    8  264   13  90.7  79.5 1014.9 13.5  1.008 -99.9 -99.99 -9.99
2019/06/17 16:00 EDT    0.02   0.09    9  248   12  90.9  79.9 1014.8 13.3  1.007 -99.9 -99.99 -9.99
2019/06/17 16:06 EDT    0.02   0.09    6  227   11  90.7  80.4 1014.7 13.3  1.007 -99.9 -99.99 -9.99
2019/06/17 16:12 EDT    0.02   0.10    7  228   10  91.2  80.2 1014.6 13.4  1.008 -99.9 -99.99 -9.99
2019/06/17 16:18 EDT    0.02   0.11    4  201    9  91.4  80.1 1014.4 13.3  1.007 -99.9 -99.99 -9.99
2019/06/17 16:24 EDT    0.03   0.11    8  229   11  91.2  79.5 1014.3 13.3  1.008 -99.9 -99.99 -9.99
2019/06/17 16:30 EDT    0.04   0.11    9  263   13  91.2  79.7 1014.2 13.2  1.007 -99.9 -99.99 -9.99
2019/06/17 16:36 EDT    0.06   0.12    9  254   13  91.2  79.5 1014.1 13.2  1.007 -99.9 -99.99 -9.99
2019/06/17 16:42 EDT    0.08   0.15    7  242   14  91.2  79.9 1014.2 13.2  1.007 -99.9 -99.99 -9.99
2019/06/17 16:48 EDT    0.10   0.20    4  208   11  91.6  79.3 1014.2 13.3  1.008 -99.9 -99.99 -9.99
2019/06/17 16:54 EDT    0.13   0.24    7  221   10  91.6  79.3 1014.2 13.4  1.008 -99.9 -99.99 -9.99
2019/06/17 17:00 EDT    0.16   0.27    7  220   11  91.6  79.7 1014.2 13.3  1.008 -99.9 -99.99 -9.99
2019/06/17 17:06 EDT    0.20   0.32    8  223   11  91.2  80.1 1014.3 13.2  1.007 -99.9 -99.99 -9.99
2019/06/17 17:12 EDT    0.24   0.37    8  231   11  91.2  80.1 1014.3 13.1  1.007 -99.9 -99.99 -9.99
2019/06/17 17:18 EDT    0.28   0.41    8  225   11  91.2  79.7 1014.3 13.2  1.007 -99.9 -99.99 -9.99
2019/06/17 17:24 EDT    0.32   0.46    7  241   10  91.4  79.3 1014.3 13.2  1.008 -99.9 -99.99 -9.99
2019/06/17 17:30 EDT    0.37   0.51    6  230    8  91.4  79.2 1014.3 13.3  1.008 -99.9 -99.99 -9.99
2019/06/17 17:36 EDT    0.42   0.56    7  225    9  91.4  79.2 1014.2 13.3  1.008 -99.9 -99.99 -9.99
2019/06/17 17:42 EDT    0.48   0.62   10  230   13  91.0  79.3 1014.2 13.3  1.008 -99.9 -99.99 -9.99
2019/06/17 17:48 EDT    0.53   0.69    4  209   11  90.7  79.3 1014.1 13.3  1.008 -99.9 -99.99 -9.99
2019/06/17 17:54 EDT    0.59   0.76    5  210    8  90.3  79.5 1014.1 13.3  1.008 -99.9 -99.99 -9.99
2019/06/17 18:00 EDT    0.65   0.83    5  220    8  90.3  79.2 1014.0 13.3  1.008 -99.9 -99.99 -9.99
2019/06/17 18:06 EDT    0.72   0.93    5  217    8  90.3  79.3 1013.8 13.3  1.008 -99.9 -99.99 -9.99
2019/06/17 18:12 EDT    0.78   1.02    6  215   11  90.5  79.7 1013.8 13.1  1.007 -99.9 -99.99 -9.99
2019/06/17 18:18 EDT    0.85   1.08    5  238    9  90.5  79.3 1013.8 13.2  1.007 -99.9 -99.99 -9.99
2019/06/17 18:24 EDT    0.92   1.15    7  224    9  90.7  78.6 1013.7 13.8  1.008 -99.9 -99.99 -9.99
2019/06/17 18:30 EDT    1.00   1.23    9  245   11  90.9  78.8 1013.8 13.6  1.008 -99.9 -99.99 -9.99
2019/06/17 18:36 EDT    1.07   1.32    6  259   10  90.7  79.2 1014.0 13.7  1.008 -99.9 -99.99 -9.99
2019/06/17 18:42 EDT    1.15   1.40    6  296    9  90.1  79.0 1014.3 13.6  1.008 -99.9 -99.99 -9.99
2019/06/17 18:48 EDT    1.22   1.50    4  348    7  88.5  78.8 1014.6 13.5  1.008 -99.9 -99.99 -9.99
2019/06/17 18:54 EDT    1.30   1.58    4  357    6  87.1  79.0 1014.8 13.7  1.008 -99.9 -99.99 -9.99
2019/06/17 19:00 EDT    1.38   1.64    0  311    4  86.9  79.5 1015.0 13.3  1.008 -99.9 -99.99 -9.99
2019/06/17 19:06 EDT    1.46   1.73    0  331    2  86.5  78.8 1015.1 13.8  1.008 -99.9 -99.99 -9.99
2019/06/17 19:12 EDT    1.55   1.80    2  342    2  86.5  78.8 1015.1 13.9  1.008 -99.9 -99.99 -9.99
2019/06/17 19:18 EDT    1.63   1.88    2    3    3  86.5  79.5 1015.1 13.5  1.008 -99.9 -99.99 -9.99
2019/06/17 19:24 EDT    1.71   1.93   13  274   21  86.0  79.5 1015.5 13.5  1.008 -99.9 -99.99 -9.99
2019/06/17 19:30 EDT    1.80   1.99   17  273   26  84.0  79.3 1015.7 13.7  1.008 -99.9 -99.99 -9.99
2019/06/17 19:36 EDT    1.88   2.09   12  274   21  82.8  79.0 1015.7 13.8  1.008 -99.9 -99.99 -9.99
2019/06/17 19:42 EDT    1.97   2.17   12  272   19  80.8  78.1 1015.6 14.5  1.009 -99.9 -99.99 -9.99
2019/06/17 19:48 EDT    2.05   2.27   10  268   13  80.1  78.4 1015.4 14.1  1.008 -99.9 -99.99 -9.99
2019/06/17 19:54 EDT    2.13   2.36    5  260   10  79.9  79.2 1015.2 13.8  1.008 -99.9 -99.99 -9.99
2019/06/17 20:00 EDT    2.22   2.44    2  257    5  79.7  77.9 1015.2 14.7  1.009 -99.9 -99.99 -9.99
2019/06/17 20:06 EDT    2.30   2.54    3   16    4  79.9  78.3 1015.2 14.6  1.009 -99.9 -99.99 -9.99
2019/06/17 20:12 EDT    2.38   2.67    1   21    5  79.9  78.8 1015.2 14.2  1.008 -99.9 -99.99 -9.99
2019/06/17 20:18 EDT    2.46   2.75    2  288    3  79.7  78.6 1015.1 14.3  1.008 -99.9 -99.99 -9.99
2019/06/17 20:24 EDT    2.54   2.76    3  287    4  79.5  78.6 1015.2 14.4  1.008 -99.9 -99.99 -9.99
2019/06/17 20:30 EDT    2.61   2.83    1  305    4  79.3  78.8 1015.2 14.2  1.008 -99.9 -99.99 -9.99
2019/06/17 20:36 EDT    2.69   2.89    2   14    2  79.5  78.3 1015.2 14.5  1.009 -99.9 -99.99 -9.99
2019/06/17 20:42 EDT    2.76   2.91    2   56    3  79.7  78.1 1015.4 14.7  1.009 -99.9 -99.99 -9.99
2019/06/17 20:48 EDT    2.82   2.91    4   60    5  80.1  77.9 1015.5 14.8  1.009 -99.9 -99.99 -9.99
2019/06/17 20:54 EDT    2.89   3.00    4   45    7  80.1  78.6 1015.7 14.5  1.009 -99.9 -99.99 -9.99
2019/06/17 21:00 EDT    2.95   3.09    5   53    8  79.7  79.0 1015.8 14.4  1.008 -99.9 -99.99 -9.99
2019/06/17 21:06 EDT    3.01   3.15    6   55    8  79.7  78.8 1016.0 14.5  1.009 -99.9 -99.99 -9.99
2019/06/17 21:12 EDT    3.07   3.19    4   45   10  79.7  78.8 1016.1 14.5  1.009 -99.9 -99.99 -9.99
2019/06/17 21:18 EDT    3.12   3.22    3  102    5  79.7  77.9 1016.1 15.1  1.009 -99.9 -99.99 -9.99
2019/06/17 21:24 EDT    3.17   3.28    4   45    6  79.5  77.5 1016.2 15.3  1.009 -99.9 -99.99 -9.99
2019/06/17 21:30 EDT    3.21   3.33    2   73    5  79.0  77.9 1016.4 15.0  1.009 -99.9 -99.99 -9.99
2019/06/17 21:36 EDT    3.25   3.38    4  142    8  79.2  78.4 1016.3 14.9  1.009 -99.9 -99.99 -9.99
2019/06/17 21:42 EDT    3.29   3.47    3  178    4  79.3  78.4 1016.5 14.9  1.009 -99.9 -99.99 -9.99
2019/06/17 21:48 EDT    3.32   3.53    1  129    3  79.3  78.6 1016.4 14.9  1.009 -99.9 -99.99 -9.99
2019/06/17 21:54 EDT    3.34   3.57    2  336    3  79.2  78.8 1016.5 14.8  1.009 -99.9 -99.99 -9.99
2019/06/17 22:00 EDT    3.37   3.62    1  335    3  79.2  78.6 1016.3 14.9  1.009 -99.9 -99.99 -9.99
2019/06/17 22:06 EDT    3.39   3.69    4  312    5  78.6  78.3 1016.5 14.9  1.009 -99.9 -99.99 -9.99
2019/06/17 22:12 EDT    3.40   3.73    1  305    5  78.1  78.4 1016.4 14.9  1.009 -99.9 -99.99 -9.99
2019/06/17 22:18 EDT    3.41   3.73    0  316    2  78.4  78.6 1016.2 14.6  1.009 -99.9 -99.99 -9.99
2019/06/17 22:24 EDT    3.42   3.73    1  121    2  79.0  78.8 1016.4 14.7  1.009 -99.9 -99.99 -9.99
2019/06/17 22:30 EDT    3.42   3.73    2   71    5  79.0  78.8 1016.3 14.7  1.009 -99.9 -99.99 -9.99
2019/06/17 22:36 EDT    3.41   3.71    1  143    3  79.2  78.8 1016.3 14.8  1.009 -99.9 -99.99 -9.99
2019/06/17 22:42 EDT    3.41   3.68    2  158    2  78.4  78.4 1016.3 15.0  1.009 -99.9 -99.99 -9.99
2019/06/17 22:48 EDT    3.40   3.63    3  145    3  78.1  78.3 1016.4 15.1  1.009 -99.9 -99.99 -9.99
2019/06/17 22:54 EDT    3.38   3.58    4  141    5  78.3  78.1 1016.4 15.1  1.009 -99.9 -99.99 -9.99
2019/06/17 23:00 EDT    3.36   3.53    2  176    4  78.1  77.9 1016.3 15.1  1.009 -99.9 -99.99 -9.99
2019/06/17 23:06 EDT    3.34   3.49    3  177    4  77.9  77.9 1016.2 15.1  1.009 -99.9 -99.99 -9.99
2019/06/17 23:12 EDT    3.31   3.47    3  242    3  77.5  77.7 1016.2 15.2  1.009 -99.9 -99.99 -9.99
2019/06/17 23:18 EDT    3.29   3.45    3  231    3  77.2  78.1 1016.2 15.1  1.009 -99.9 -99.99 -9.99
2019/06/17 23:24 EDT    3.25   3.41    3  233    4  77.0  78.1 1016.2 15.1  1.009 -99.9 -99.99 -9.99
2019/06/17 23:30 EDT    3.22   3.39    3  208    5  77.0  78.3 1016.2 15.1  1.009 -99.9 -99.99 -9.99
2019/06/17 23:36 EDT    3.18   3.35    2  197    4  77.2  78.3 1016.1 15.0  1.009 -99.9 -99.99 -9.99
2019/06/17 23:42 EDT    3.13   3.29    1  196    5  77.5  78.3 1016.0 15.0  1.009 -99.9 -99.99 -9.99
2019/06/17 23:48 EDT    3.09   3.23    2  204    3  77.5  78.3 1016.0 15.0  1.009 -99.9 -99.99 -9.99
2019/06/17 23:54 EDT    3.04   3.16    2  180    3  77.9  78.3 1016.0 15.0  1.009 -99.9 -99.99 -9.99
2019/06/18 00:00 EDT    2.99   3.09    2  174    4  78.3  77.9 1016.0 15.2  1.009 -99.9 -99.99 -9.99
2019/06/18 00:06 EDT    2.94   3.01    2  182    4  78.3  77.9 1015.9 15.1  1.009 -99.9 -99.99 -9.99
2019/06/18 00:12 EDT    2.88   2.93    3  191    4  78.3  77.9 1015.9 15.1  1.009 -99.9 -99.99 -9.99
2019/06/18 00:18 EDT    2.82   2.86    3  189    4  78.3  77.9 1015.9 15.1  1.009 -99.9 -99.99 -9.99
2019/06/18 00:24 EDT    2.76   2.81    3  215    5  78.3  77.7 1015.9 15.3  1.009 -99.9 -99.99 -9.99
2019/06/18 00:30 EDT    2.70   2.76    5  220    7  78.3  77.9 1015.9 15.1  1.009 -99.9 -99.99 -9.99
2019/06/18 00:36 EDT    2.63   2.71    4  222    7  78.1  77.9 1015.9 15.1  1.009 -99.9 -99.99 -9.99
2019/06/18 00:42 EDT    2.56   2.68    5  217    7  78.1  78.1 1015.8 14.9  1.009 -99.9 -99.99 -9.99
2019/06/18 00:48 EDT    2.49   2.65    5  218    7  78.3  78.1 1015.8 14.9  1.009 -99.9 -99.99 -9.99
2019/06/18 00:54 EDT    2.42   2.61    5  222    8  78.4  78.3 1015.8 14.9  1.009 -99.9 -99.99 -9.99
2019/06/18 01:00 EDT    2.35   2.56    5  222    8  78.4  78.1 1015.8 14.9  1.009 -99.9 -99.99 -9.99
2019/06/18 01:06 EDT    2.27   2.51    5  219    8  78.4  77.9 1015.7 15.1  1.009 -99.9 -99.99 -9.99
2019/06/18 01:12 EDT    2.20   2.46    4  221    8  78.4  77.9 1015.6 15.1  1.009 -99.9 -99.99 -9.99
2019/06/18 01:18 EDT    2.12   2.41    6  221    9  78.4  78.3 1015.6 14.9  1.009 -99.9 -99.99 -9.99
2019/06/18 01:24 EDT    2.04   2.35    5  225    9  78.4  78.1 1015.5 15.0  1.009 -99.9 -99.99 -9.99
2019/06/18 01:30 EDT    1.96   2.29    7  233   11  78.6  78.3 1015.6 14.9  1.009 -99.9 -99.99 -9.99
2019/06/18 01:36 EDT    1.87   2.23    7  237   10  78.8  78.3 1015.6 14.8  1.009 -99.9 -99.99 -9.99
2019/06/18 01:42 EDT    1.79   2.18    8  236   12  78.8  78.3 1015.6 14.8  1.009 -99.9 -99.99 -9.99
2019/06/18 01:48 EDT    1.71   2.12    8  235   12  78.8  78.3 1015.6 14.7  1.009 -99.9 -99.99 -9.99
2019/06/18 01:54 EDT    1.62   2.06    7  235   11  78.6  78.3 1015.6 14.7  1.009 -99.9 -99.99 -9.99
2019/06/18 02:00 EDT    1.54   2.00    7  239   11  78.6  78.3 1015.5 14.7  1.009 -99.9 -99.99 -9.99
2019/06/18 02:06 EDT    1.45   1.94    8  233   10  78.6  78.3 1015.5 14.7  1.009 -99.9 -99.99 -9.99
2019/06/18 02:12 EDT    1.37   1.88    6  240    9  78.6  78.3 1015.4 14.7  1.009 -99.9 -99.99 -9.99
2019/06/18 02:18 EDT    1.28   1.82    7  235   10  78.4  78.3 1015.4 14.7  1.009 -99.9 -99.99 -9.99
2019/06/18 02:24 EDT    1.20   1.75    7  238   11  78.4  78.3 1015.4 14.7  1.009 -99.9 -99.99 -9.99
2019/06/18 02:30 EDT    1.12   1.67    7  235   10  78.3  78.3 1015.4 14.7  1.009 -99.9 -99.99 -9.99
2019/06/18 02:36 EDT    1.03   1.59    7  237   10  78.1  78.3 1015.4 14.6  1.009 -99.9 -99.99 -9.99
2019/06/18 02:42 EDT    0.95   1.50    6  234   10  77.9  78.1 1015.4 14.6  1.009 -99.9 -99.99 -9.99
2019/06/18 02:48 EDT    0.87   1.41    6  227   10  77.7  78.3 1015.3 14.5  1.009 -99.9 -99.99 -9.99
2019/06/18 02:54 EDT    0.80   1.33    4  219    8  77.4  78.3 1015.2 14.6  1.009 -99.9 -99.99 -9.99
2019/06/18 03:00 EDT    0.72   1.24    5  224    8  77.2  78.4 1015.1 14.4  1.009 -99.9 -99.99 -9.99
2019/06/18 03:06 EDT    0.65   1.15    5  225    9  77.2  78.4 1015.2 14.2  1.008 -99.9 -99.99 -9.99
2019/06/18 03:12 EDT    0.58   1.08    5  224    9  77.2  78.3 1015.2 14.4  1.009 -99.9 -99.99 -9.99
2019/06/18 03:18 EDT    0.51   1.00    5  228    8  77.0  78.4 1015.2 14.1  1.008 -99.9 -99.99 -9.99
2019/06/18 03:24 EDT    0.45   0.93    5  231    7  77.0  78.6 1015.2 14.0  1.008 -99.9 -99.99 -9.99
2019/06/18 03:30 EDT    0.39   0.85    6  238    8  77.0  78.4 1015.2 14.0  1.008 -99.9 -99.99 -9.99
2019/06/18 03:36 EDT    0.33   0.77    5  237   10  77.0  78.4 1015.2 14.1  1.008 -99.9 -99.99 -9.99
2019/06/18 03:42 EDT    0.28   0.71    7  234    9  77.0  78.4 1015.2 14.0  1.008 -99.9 -99.99 -9.99
2019/06/18 03:48 EDT    0.23   0.64    6  234    9  77.0  78.4 1015.1 13.9  1.008 -99.9 -99.99 -9.99
2019/06/18 03:54 EDT    0.18   0.58    5  236   10  77.0  78.6 1015.0 13.8  1.008 -99.9 -99.99 -9.99
2019/06/18 04:00 EDT    0.14   0.52    6  239   10  77.0  78.6 1015.0 13.9  1.008 -99.9 -99.99 -9.99
2019/06/18 04:06 EDT    0.10   0.47    5  227    9  76.8  78.6 1015.0 13.8  1.008 -99.9 -99.99 -9.99
2019/06/18 04:12 EDT    0.07   0.43    5  233    9  76.8  78.6 1015.0 13.8  1.008 -99.9 -99.99 -9.99
2019/06/18 04:18 EDT    0.04   0.40    4  228    8  76.8  78.6 1015.0 13.7  1.008 -99.9 -99.99 -9.99
2019/06/18 04:24 EDT    0.01   0.38    5  229   10  76.8  78.4 1015.0 13.8  1.008 -99.9 -99.99 -9.99
2019/06/18 04:30 EDT   -0.01   0.37    5  228    9  76.8  78.6 1015.0 13.8  1.008 -99.9 -99.99 -9.99
2019/06/18 04:36 EDT   -0.02   0.37    5  229    9  76.6  78.4 1015.1 13.7  1.008 -99.9 -99.99 -9.99
2019/06/18 04:42 EDT   -0.04   0.37    6  236   10  76.6  78.4 1015.1 13.7  1.008 -99.9 -99.99 -9.99
2019/06/18 04:48 EDT   -0.04   0.38    5  235    7  76.5  78.4 1015.2 13.6  1.008 -99.9 -99.99 -9.99
2019/06/18 04:54 EDT   -0.05   0.37    7  236    9  76.6  78.4 1015.3 13.6  1.008 -99.9 -99.99 -9.99
2019/06/18 05:00 EDT   -0.05   0.36    7  246   10  76.6  78.4 1015.3 13.6  1.008 -99.9 -99.99 -9.99
2019/06/18 05:06 EDT   -0.04   0.39    5  234    9  76.5  78.4 1015.2 13.6  1.008 -99.9 -99.99 -9.99
2019/06/18 05:12 EDT   -0.03   0.40    5  228    8  76.3  78.4 1015.2 13.5  1.008 -99.9 -99.99 -9.99
2019/06/18 05:18 EDT   -0.02   0.41    4  228    8  76.3  78.4 1015.3 13.5  1.008 -99.9 -99.99 -9.99
2019/06/18 05:24 EDT   -0.01   0.43    8  232   11  76.3  78.4 1015.3 13.5  1.008 -99.9 -99.99 -9.99
2019/06/18 05:30 EDT    0.02   0.46    6  228   10  76.1  78.4 1015.4 13.5  1.008 -99.9 -99.99 -9.99
2019/06/18 05:36 EDT    0.04   0.49    5  224   10  76.1  78.4 1015.4 13.5  1.008 -99.9 -99.99 -9.99
2019/06/18 05:42 EDT    0.07   0.52    5  222   10  75.9  78.4 1015.4 13.5  1.008 -99.9 -99.99 -9.99
2019/06/18 05:48 EDT    0.10   0.55    6  227    9  75.9  78.4 1015.4 13.5  1.008 -99.9 -99.99 -9.99
2019/06/18 05:54 EDT    0.13   0.58    5  230   10  75.7  78.4 1015.4 13.5  1.008 -99.9 -99.99 -9.99
2019/06/18 06:00 EDT    0.17   0.61    6  230    9  75.7  78.4 1015.5 13.5  1.008 -99.9 -99.99 -9.99
2019/06/18 06:06 EDT    0.21   0.66    5  228    7  75.7  78.4 1015.5 13.5  1.008 -99.9 -99.99 -9.99
2019/06/18 06:12 EDT    0.25   0.70    5  239    8  75.7  78.4 1015.5 13.5  1.008 -99.9 -99.99 -9.99
2019/06/18 06:18 EDT    0.30   0.74    5  227    9  75.7  78.4 1015.5 13.5  1.008 -99.9 -99.99 -9.99
2019/06/18 06:24 EDT    0.34   0.77    6  233    7  75.6  78.4 1015.5 13.6  1.008 -99.9 -99.99 -9.99
2019/06/18 06:30 EDT    0.40   0.80    5  242    8  75.7  78.4 1015.5 13.7  1.008 -99.9 -99.99 -9.99
2019/06/18 06:36 EDT    0.45   0.83    5  229    8  75.7  78.4 1015.5 13.7  1.008 -99.9 -99.99 -9.99
2019/06/18 06:42 EDT    0.51   0.86    4  233    8  75.7  78.4 1015.5 13.7  1.008 -99.9 -99.99 -9.99
2019/06/18 06:48 EDT    0.56   0.90    5  238    7  75.9  78.4 1015.5 13.7  1.008 -99.9 -99.99 -9.99
2019/06/18 06:54 EDT    0.62   0.92    6  238   10  76.1  78.4 1015.5 13.7  1.008 -99.9 -99.99 -9.99
2019/06/18 07:00 EDT    0.69   0.95    6  245    8  76.3  78.4 1015.5 13.7  1.008 -99.9 -99.99 -9.99
2019/06/18 07:06 EDT    0.75   0.98    7  240   11  76.3  78.4 1015.5 13.7  1.008 -99.9 -99.99 -9.99
2019/06/18 07:12 EDT    0.82   1.03    6  241    9  76.5  78.4 1015.4 13.7  1.008 -99.9 -99.99 -9.99
2019/06/18 07:18 EDT    0.89   1.08    6  248    8  76.5  78.4 1015.3 13.8  1.008 -99.9 -99.99 -9.99
2019/06/18 07:24 EDT    0.96   1.14    6  241   11  76.6  78.4 1015.4 13.7  1.008 -99.9 -99.99 -9.99
2019/06/18 07:30 EDT    1.03   1.19    6  224    9  77.0  78.4 1015.5 13.7  1.008 -99.9 -99.99 -9.99
2019/06/18 07:36 EDT    1.10   1.25    5  237    9  77.0  78.4 1015.5 13.7  1.008 -99.9 -99.99 -9.99
2019/06/18 07:42 EDT    1.17   1.33    7  248   11  77.2  78.3 1015.5 13.6  1.008 -99.9 -99.99 -9.99
2019/06/18 07:48 EDT    1.25   1.38    6  243   11  77.4  78.3 1015.5 13.6  1.008 -99.9 -99.99 -9.99
2019/06/18 07:54 EDT    1.32   1.43    6  248   10  77.4  78.3 1015.4 13.8  1.008 -99.9 -99.99 -9.99
2019/06/18 08:00 EDT    1.40   1.49    7  241   10  77.4  78.3 1015.6 13.9  1.008 -99.9 -99.99 -9.99
2019/06/18 08:06 EDT    1.48   1.55   11  240   13  77.4  78.3 1015.7 14.1  1.008 -99.9 -99.99 -9.99
2019/06/18 08:12 EDT    1.55   1.62    8  249   11  77.4  78.3 1015.6 14.1  1.008 -99.9 -99.99 -9.99
2019/06/18 08:18 EDT    1.63   1.70    6  229   11  77.5  78.3 1015.5 14.0  1.008 -99.9 -99.99 -9.99
2019/06/18 08:24 EDT    1.70   1.77    7  241   10  77.7  78.3 1015.5 14.1  1.008 -99.9 -99.99 -9.99
2019/06/18 08:30 EDT    1.78   1.84    8  242   15  77.9  78.3 1015.5 13.9  1.008 -99.9 -99.99 -9.99
2019/06/18 08:36 EDT    1.85   1.93    9  243   12  78.3  78.3 1015.5 13.9  1.008 -99.9 -99.99 -9.99
2019/06/18 08:42 EDT    1.92   2.01    8  244   11  78.4  78.3 1015.4 13.6  1.008 -99.9 -99.99 -9.99
2019/06/18 08:48 EDT    2.00   2.10    6  250   11  78.8  78.3 1015.4 13.8  1.008 -99.9 -99.99 -9.99
2019/06/18 08:54 EDT    2.07   2.18    7  222   11  79.0  78.4 1015.4 13.7  1.008 -99.9 -99.99 -9.99
2019/06/18 09:00 EDT    2.13   2.26    8  248   11  79.0  78.3 1015.4 13.9  1.008 -99.9 -99.99 -9.99
2019/06/18 09:06 EDT    2.20   2.36    6  239   11  79.5  78.3 1015.4 13.9  1.008 -99.9 -99.99 -9.99
2019/06/18 09:12 EDT    2.26   2.43    6  228    9  79.7  78.4 1015.4 13.8  1.008 -99.9 -99.99 -9.99
2019/06/18 09:18 EDT    2.32   2.51    8  215   11  80.2  78.6 1015.4 13.8  1.008 -99.9 -99.99 -9.99
2019/06/18 09:24 EDT    2.38   2.58    7  232    9  80.4  78.3 1015.4 14.4  1.009 -99.9 -99.99 -9.99
2019/06/18 09:30 EDT    2.44   2.64    7  243   11  80.8  78.3 1015.4 14.4  1.009 -99.9 -99.99 -9.99
2019/06/18 09:36 EDT    2.49   2.69    8  249   11  81.1  78.4 1015.3 14.3  1.008 -99.9 -99.99 -9.99
2019/06/18 09:42 EDT    2.54   2.75    8  256   10  81.5  78.4 1015.4 14.2  1.008 -99.9 -99.99 -9.99
2019/06/18 09:48 EDT    2.58   2.79    7  218   13  81.7  78.6 1015.5 14.1  1.008 -99.9 -99.99 -9.99
2019/06/18 09:54 EDT    2.62   2.84    7  237   13  81.7  78.1 1015.4 14.6  1.009 -99.9 -99.99 -9.99
2019/06/18 10:00 EDT    2.66   2.88    6  247    9  82.0  78.1 1015.4 14.6  1.009 -99.9 -99.99 -9.99
2019/06/18 10:06 EDT    2.69   2.91    9  254   12  82.0  78.1 1015.4 14.8  1.009 -99.9 -99.99 -9.99
2019/06/18 10:12 EDT    2.72   2.95    7  240   12  82.2  78.1 1015.3 14.7  1.009 -99.9 -99.99 -9.99
2019/06/18 10:18 EDT    2.75   2.99    8  244   14  82.9  78.1 1015.2 14.7  1.009 -99.9 -99.99 -9.99
2019/06/18 10:24 EDT    2.77   3.02    9  241   12  83.1  78.1 1015.2 14.7  1.009 -99.9 -99.99 -9.99
2019/06/18 10:30 EDT    2.79   3.05    6  244   11  83.5  78.1 1015.2 14.7  1.009 -99.9 -99.99 -9.99
2019/06/18 10:36 EDT    2.80   3.06    8  266   11  83.7  78.3 1015.2 14.5  1.009 -99.9 -99.99 -9.99
2019/06/18 10:42 EDT    2.81   3.09    8  240   13  83.5  78.3 1015.2 14.5  1.009 -99.9 -99.99 -9.99
2019/06/18 10:48 EDT    2.81   3.10   11  252   16  83.5  78.1 1015.2 14.7  1.009 -99.9 -99.99 -9.99
2019/06/18 10:54 EDT    2.82   3.11    9  264   11  83.8  78.1 1015.2 14.7  1.009 -99.9 -99.99 -9.99
2019/06/18 11:00 EDT    2.81   3.11    8  241   11  84.2  78.1 1015.2 14.8  1.009 -99.9 -99.99 -9.99
2019/06/18 11:06 EDT    2.81   3.12    7  232   12  84.4  78.1 1015.2 14.8  1.009 -99.9 -99.99 -9.99
2019/06/18 11:12 EDT    2.80   3.11    9  242   14  84.7  77.9 1015.2 14.9  1.009 -99.9 -99.99 -9.99
2019/06/18 11:18 EDT    2.78   3.10   10  234   15  84.7  77.9 1015.2 14.9  1.009 -99.9 -99.99 -9.99
2019/06/18 11:24 EDT    2.77   3.08   11  248   13  84.9  77.9 1015.2 15.0  1.009 -99.9 -99.99 -9.99
2019/06/18 11:30 EDT    2.74   3.06   10  243   16  85.3  77.9 1015.2 15.0  1.009 -99.9 -99.99 -9.99
2019/06/18 11:36 EDT    2.72   3.05    8  262   13  85.3  77.9 1015.2 15.0  1.009 -99.9 -99.99 -9.99
2019/06/18 11:42 EDT    2.69   3.04   10  265   14  85.3  77.9 1015.1 14.9  1.009 -99.9 -99.99 -9.99
2019/06/18 11:48 EDT    2.66   3.01    9  249   12  85.5  77.9 1015.1 14.9  1.009 -99.9 -99.99 -9.99
2019/06/18 11:54 EDT    2.63   2.99   10  253   15  85.3  77.9 1015.0 14.9  1.009 -99.9 -99.99 -9.99
2019/06/18 12:00 EDT    2.59   2.97    8  227   13  85.8  77.9 1015.0 14.9  1.009 -99.9 -99.99 -9.99
2019/06/18 12:06 EDT    2.55   2.94    9  254   14  86.0  77.9 1015.0 14.8  1.009 -99.9 -99.99 -9.99
2019/06/18 12:12 EDT    2.51   2.90   10  240   14  86.0  77.9 1014.9 14.8  1.009 -99.9 -99.99 -9.99
2019/06/18 12:18 EDT    2.47   2.86    9  262   14  86.0  77.9 1014.9 14.8  1.009 -99.9 -99.99 -9.99
2019/06/18 12:24 EDT    2.42   2.81   10  265   14  86.4  77.9 1014.9 14.8  1.009 -99.9 -99.99 -9.99
2019/06/18 12:30 EDT    2.37   2.75    8  247   14  86.2  77.9 1014.9 14.8  1.009 -99.9 -99.99 -9.99
2019/06/18 12:36 EDT    2.32   2.68    9  281   13  86.4  77.9 1014.8 14.8  1.009 -99.9 -99.99 -9.99
2019/06/18 12:42 EDT    2.27   2.62    8  267   13  86.5  77.9 1014.8 14.8  1.009 -99.9 -99.99 -9.99
2019/06/18 12:48 EDT    2.22   2.58    7  238   12  86.7  77.9 1014.7 14.8  1.009 -99.9 -99.99 -9.99
2019/06/18 12:54 EDT    2.16   2.50    8  292   11  86.7  77.9 1014.6 14.9  1.009 -99.9 -99.99 -9.99
2019/06/18 13:00 EDT    2.10   2.43    9  283   12  86.7  77.9 1014.6 14.9  1.009 -99.9 -99.99 -9.99
2019/06/18 13:06 EDT    2.04   2.38    6  242   12  87.1  77.9 1014.6 14.8  1.009 -99.9 -99.99 -9.99
2019/06/18 13:12 EDT    1.98   2.31    7  268    9  87.4  77.9 1014.5 14.9  1.009 -99.9 -99.99 -9.99
2019/06/18 13:18 EDT    1.92   2.24    9  284   13  87.1  78.3 1014.5 14.7  1.009 -99.9 -99.99 -9.99
2019/06/18 13:24 EDT    1.85   2.18    9  250   13  87.1  78.4 1014.5 14.6  1.009 -99.9 -99.99 -9.99
2019/06/18 13:30 EDT    1.79   2.11    9  274   12  87.1  78.1 1014.5 14.6  1.009 -99.9 -99.99 -9.99
2019/06/18 13:36 EDT    1.72   2.04    7  275   14  87.1  78.1 1014.3 14.7  1.009 -99.9 -99.99 -9.99
2019/06/18 13:42 EDT    1.65   2.00    8  239   12  87.1  78.4 1014.3 14.5  1.009 -99.9 -99.99 -9.99
2019/06/18 13:48 EDT    1.58   1.92    8  241   11  87.3  78.8 1014.2 14.5  1.009 -99.9 -99.99 -9.99
2019/06/18 13:54 EDT    1.51   1.83    7  270    9  87.3  79.0 1014.2 14.4  1.008 -99.9 -99.99 -9.99
2019/06/18 14:00 EDT    1.44   1.77    8  263   12  87.3  79.5 1014.1 14.2  1.008 -99.9 -99.99 -9.99
2019/06/18 14:06 EDT    1.37   1.70    6  265   12  87.4  79.3 1014.1 14.2  1.008 -99.9 -99.99 -9.99
2019/06/18 14:12 EDT    1.30   1.59   10  262   12  87.3  79.2 1013.9 14.3  1.008 -99.9 -99.99 -9.99
2019/06/18 14:18 EDT    1.23   1.52   11  251   15  87.6  79.3 1013.9 14.3  1.008 -99.9 -99.99 -9.99
2019/06/18 14:24 EDT    1.16   1.45    8  258   12  88.0  79.2 1013.8 14.4  1.008 -99.9 -99.99 -9.99
2019/06/18 14:30 EDT    1.09   1.39   11  257   13  88.0  80.1 1013.7 13.9  1.008 -99.9 -99.99 -9.99
2019/06/18 14:36 EDT    1.02   1.33    7  247   11  88.0  79.3 1013.5 14.3  1.008 -99.9 -99.99 -9.99
2019/06/18 14:42 EDT    0.95   1.27    7  256   12  88.2  80.1 1013.4 14.0  1.008 -99.9 -99.99 -9.99
2019/06/18 14:48 EDT    0.88   1.22    5  224    9  88.7  80.1 1013.3 14.0  1.008 -99.9 -99.99 -9.99
2019/06/18 14:54 EDT    0.82   1.16    9  229   13  88.3  79.7 1013.3 14.1  1.008 -99.9 -99.99 -9.99
2019/06/18 15:00 EDT    0.75   1.09    8  218   12  87.8  79.7 1013.3 14.1  1.008 -99.9 -99.99 -9.99
2019/06/18 15:06 EDT    0.69   1.06    6  238   10  88.0  79.7 1013.2 14.1  1.008 -99.9 -99.99 -9.99
2019/06/18 15:12 EDT    0.63   0.99    7  269   11  88.3  79.7 1013.1 14.1  1.008 -99.9 -99.99 -9.99
2019/06/18 15:18 EDT    0.57   0.94   10  246   13  88.3  79.7 1013.0 14.1  1.008 -99.9 -99.99 -9.99
2019/06/18 15:24 EDT    0.51   0.89    7  256   11  88.3  80.2 1013.0 13.8  1.008 -99.9 -99.99 -9.99
2019/06/18 15:30 EDT    0.46   0.82    7  247   10  88.0  80.4 1012.9 13.7  1.008 -99.9 -99.99 -9.99
2019/06/18 15:36 EDT    0.41   0.77    4  238    7  87.6  80.2 1013.0 13.9  1.008 -99.9 -99.99 -9.99
2019/06/18 15:42 EDT    0.36   0.74    7  265   10  87.8  80.4 1013.0 13.7  1.008 -99.9 -99.99 -9.99
2019/06/18 15:48 EDT    0.32   0.70    5  258    8  87.6  80.4 1013.0 13.8  1.008 -99.9 -99.99 -9.99
2019/06/18 15:54 EDT    0.28   0.66    6  264    9  87.4  80.6 1013.0 13.8  1.008 -99.9 -99.99 -9.99
2019/06/18 16:00 EDT    0.24   0.64    7  248    9  87.4  81.0 1013.0 13.8  1.008 -99.9 -99.99 -9.99
2019/06/18 16:06 EDT    0.21   0.61    4  243    8  86.9  81.3 1012.9 13.9  1.008 -99.9 -99.99 -9.99
2019/06/18 16:12 EDT    0.18   0.59    5  252    7  86.7  81.0 1013.0 13.9  1.008 -99.9 -99.99 -9.99
2019/06/18 16:18 EDT    0.15   0.57    6  269    8  86.0  81.0 1013.3 13.8  1.008 -99.9 -99.99 -9.99
2019/06/18 16:24 EDT    0.13   0.57    9  227   17  82.4  81.0 1013.5 13.7  1.008 -99.9 -99.99 -9.99
2019/06/18 16:30 EDT    0.11   0.55    8  237   13  81.0  81.1 1013.5 13.6  1.007 -99.9 -99.99 -9.99
2019/06/18 16:36 EDT    0.10   0.55    6  277   12  80.2  81.0 1013.5 13.5  1.007 -99.9 -99.99 -9.99
2019/06/18 16:42 EDT    0.09   0.56    5  272    9  79.2  80.8 1013.2 13.4  1.007 -99.9 -99.99 -9.99
2019/06/18 16:48 EDT    0.08   0.59    0  189    5  79.2  80.8 1013.0 13.4  1.007 -99.9 -99.99 -9.99
2019/06/18 16:54 EDT    0.08   0.57    7  303   12  78.4  80.6 1013.0 13.7  1.008 -99.9 -99.99 -9.99
2019/06/18 17:00 EDT    0.09   0.56    4  310   10  77.9  80.4 1012.9 13.7  1.008 -99.9 -99.99 -9.99
2019/06/18 17:06 EDT    0.10   0.59    4  300    7  78.3  80.4 1012.8 13.5  1.008 -99.9 -99.99 -9.99
2019/06/18 17:12 EDT    0.11   0.62    2  278    4  78.4  80.4 1012.8 13.6  1.008 -99.9 -99.99 -9.99
2019/06/18 17:18 EDT    0.12   0.65    1  186    3  78.4  80.8 1012.8 13.3  1.007 -99.9 -99.99 -9.99
2019/06/18 17:24 EDT    0.14   0.66    1  165    2  78.6  80.6 1012.9 13.3  1.007 -99.9 -99.99 -9.99
2019/06/18 17:30 EDT    0.16   0.69    2  164    2  78.6  80.6 1012.8 13.3  1.007 -99.9 -99.99 -9.99
2019/06/18 17:36 EDT    0.19   0.70    2  187    2  78.8  80.6 1013.0 13.3  1.007 -99.9 -99.99 -9.99
2019/06/18 17:42 EDT    0.22   0.73    3  186    3  78.8  80.4 1012.9 13.4  1.007 -99.9 -99.99 -9.99
2019/06/18 17:48 EDT    0.26   0.78    2  197    4  78.6  80.4 1012.8 13.4  1.007 -99.9 -99.99 -9.99
2019/06/18 17:54 EDT    0.29   0.82    2  208    3  78.6  80.4 1012.7 13.3  1.007 -99.9 -99.99 -9.99
2019/06/18 18:00 EDT    0.33   0.85    2  212    3  78.6  80.4 1012.7 13.4  1.007 -99.9 -99.99 -9.99
2019/06/18 18:06 EDT    0.38   0.88    2  235    2  78.3  80.4 1012.7 13.4  1.007 -99.9 -99.99 -9.99
2019/06/18 18:12 EDT    0.42   0.93    2  303    3  78.4  80.4 1012.7 13.5  1.008 -99.9 -99.99 -9.99
2019/06/18 18:18 EDT    0.47   0.98    2  303    4  78.4  80.4 1012.7 13.5  1.008 -99.9 -99.99 -9.99
2019/06/18 18:24 EDT    0.52   1.02    3  296    5  78.4  80.2 1012.8 13.5  1.008 -99.9 -99.99 -9.99
2019/06/18 18:30 EDT    0.57   1.04    2  288    4  78.6  79.5 1012.8 13.8  1.008 -99.9 -99.99 -9.99
2019/06/18 18:36 EDT    0.63   1.09    2  306    5  78.6  79.5 1012.9 13.9  1.008 -99.9 -99.99 -9.99
2019/06/18 18:42 EDT    0.69   1.13    3  292    4  78.4  79.3 1012.8 14.0  1.008 -99.9 -99.99 -9.99
2019/06/18 18:48 EDT    0.75   1.19    2  319    5  78.4  79.3 1012.7 13.9  1.008 -99.9 -99.99 -9.99
2019/06/18 18:54 EDT    0.81   1.24    0  288    4  78.6  79.5 1012.7 13.9  1.008 -99.9 -99.99 -9.99
2019/06/18 19:00 EDT    0.88   1.30    1  316    2  78.6  79.2 1012.7 14.0  1.008 -99.9 -99.99 -9.99
2019/06/18 19:06 EDT    0.94   1.37    3  315    4  78.4  79.3 1012.7 14.0  1.008 -99.9 -99.99 -9.99
2019/06/18 19:12 EDT    1.01   1.44    1  277    4  78.4  79.3 1012.9 14.0  1.008 -99.9 -99.99 -9.99
2019/06/18 19:18 EDT    1.08   1.52    1  165    2  78.6  79.3 1012.9 14.0  1.008 -99.9 -99.99 -9.99
2019/06/18 19:24 EDT    1.15   1.59    2  165    2  78.4  79.5 1012.9 14.0  1.008 -99.9 -99.99 -9.99
2019/06/18 19:30 EDT    1.22   1.67    3  207    4  78.3  79.5 1013.0 13.9  1.008 -99.9 -99.99 -9.99
2019/06/18 19:36 EDT    1.30   1.75    3  192    4  78.1  79.3 1013.1 14.0  1.008 -99.9 -99.99 -9.99
2019/06/18 19:42 EDT    1.37   1.82    3  212    5  77.9  79.3 1013.2 13.9  1.008 -99.9 -99.99 -9.99
2019/06/18 19:48 EDT    1.45   1.89    3  216    4  77.5  79.5 1013.2 13.9  1.008 -99.9 -99.99 -9.99
2019/06/18 19:54 EDT    1.52   1.95    3  220    4  77.4  79.5 1013.2 14.0  1.008 -99.9 -99.99 -9.99
2019/06/18 20:00 EDT    1.60   2.02    2  223    3  77.4  79.5 1013.3 13.9  1.008 -99.9 -99.99 -9.99
2019/06/18 20:06 EDT    1.68   2.09    3  250    4  77.2  79.5 1013.3 13.8  1.008 -99.9 -99.99 -9.99
2019/06/18 20:12 EDT    1.76   2.16    2  247    3  77.4  79.9 1013.3 13.5  1.008 -99.9 -99.99 -9.99
2019/06/18 20:18 EDT    1.84   2.23    2  230    3  77.2  79.3 1013.3 14.0  1.008 -99.9 -99.99 -9.99
2019/06/18 20:24 EDT    1.92   2.31    1  222    2  77.2  79.9 1013.4 13.6  1.008 -99.9 -99.99 -9.99
2019/06/18 20:30 EDT    1.99   2.39    3  255    4  77.4  80.1 1013.4 13.6  1.008 -99.9 -99.99 -9.99
2019/06/18 20:36 EDT    2.07   2.46    4  271    6  77.5  79.7 1013.4 13.9  1.008 -99.9 -99.99 -9.99
2019/06/18 20:42 EDT    2.15   2.55    4  271    7  77.5  79.0 1013.3 14.4  1.008 -99.9 -99.99 -9.99
2019/06/18 20:48 EDT    2.23   2.64    4  246    6  77.2  79.7 1013.4 13.7  1.008 -99.9 -99.99 -9.99
2019/06/18 20:54 EDT    2.30   2.72    4  264    6  76.8  79.3 1013.5 14.2  1.008 -99.9 -99.99 -9.99
2019/06/18 21:00 EDT    2.38   2.82    2  215    5  76.5  78.4 1013.7 14.8  1.009 -99.9 -99.99 -9.99
2019/06/18 21:06 EDT    2.45   2.90    3  323    4  76.3  79.0 1013.6 14.5  1.008 -99.9 -99.99 -9.99
2019/06/18 21:12 EDT    2.52   2.97    1  323    4  76.3  78.8 1013.7 14.6  1.009 -99.9 -99.99 -9.99
2019/06/18 21:18 EDT    2.59   3.03    3  306    4  76.1  78.6 1013.9 14.7  1.009 -99.9 -99.99 -9.99
2019/06/18 21:24 EDT    2.66   3.10    4  222    7  75.9  79.2 1014.3 14.4  1.008 -99.9 -99.99 -9.99
2019/06/18 21:30 EDT    2.73   3.16    8  250   12  75.6  78.8 1014.3 14.5  1.009 -99.9 -99.99 -9.99
2019/06/18 21:36 EDT    2.79   3.21   10  265   15  74.7  78.8 1014.3 14.5  1.009 -99.9 -99.99 -9.99
2019/06/18 21:42 EDT    2.85   3.24    6  242   15  74.5  79.3 1014.2 14.3  1.008 -99.9 -99.99 -9.99
2019/06/18 21:48 EDT    2.91   3.30    7  262   10  74.7  79.7 1014.2 14.1  1.008 -99.9 -99.99 -9.99
2019/06/18 21:54 EDT    2.96   3.36    5  228    9  74.1  79.0 1014.0 14.7  1.009 -99.9 -99.99 -9.99
2019/06/18 22:00 EDT    3.01   3.42    3  212    8  73.8  79.2 1013.6 14.5  1.009 -99.9 -99.99 -9.99
2019/06/18 22:06 EDT    3.06   3.49    1  188    4  73.8  79.0 1013.7 14.7  1.009 -99.9 -99.99 -9.99
2019/06/18 22:12 EDT    3.10   3.54    4  300    5  74.1  79.0 1013.8 14.7  1.009 -99.9 -99.99 -9.99
2019/06/18 22:18 EDT    3.14   3.59    5  304    8  73.9  78.4 1014.2 15.1  1.009 -99.9 -99.99 -9.99
2019/06/18 22:24 EDT    3.18   3.61    5  300    6  73.8  78.1 1014.2 15.4  1.009 -99.9 -99.99 -9.99
2019/06/18 22:30 EDT    3.21   3.63    4  299    6  73.9  78.4 1014.2 15.1  1.009 -99.9 -99.99 -9.99
2019/06/18 22:36 EDT    3.24   3.67    5  299    7  73.9  78.6 1014.2 15.0  1.009 -99.9 -99.99 -9.99
2019/06/18 22:42 EDT    3.26   3.71    3  320    5  74.1  78.8 1014.2 14.8  1.009 -99.9 -99.99 -9.99
2019/06/18 22:48 EDT    3.28   3.72    3  317    5  74.1  78.8 1014.3 14.9  1.009 -99.9 -99.99 -9.99
2019/06/18 22:54 EDT    3.29   3.74    3  321    5  74.3  78.4 1014.2 15.2  1.009 -99.9 -99.99 -9.99
2019/06/18 23:00 EDT    3.31   3.74    2  349    4  74.3  78.3 1014.1 15.4  1.009 -99.9 -99.99 -9.99
2019/06/18 23:06 EDT    3.31   3.75    1  319    3  74.3  78.3 1014.1 15.4  1.009 -99.9 -99.99 -9.99
2019/06/18 23:12 EDT    3.32   3.74    1  335    2  74.3  78.4 1014.0 15.2  1.009 -99.9 -99.99 -9.99
2019/06/18 23:18 EDT    3.31   3.72    0  326    2  74.3  78.6 1013.9 15.2  1.009 -99.9 -99.99 -9.99
2019/06/18 23:24 EDT    3.31   3.70    2  215    2  74.5  78.6 1014.0 15.1  1.009 -99.9 -99.99 -9.99
2019/06/18 23:30 EDT    3.30   3.69    3  226    3  74.5  78.3 1014.0 15.2  1.009 -99.9 -99.99 -9.99
2019/06/18 23:36 EDT    3.29   3.67    2  206    3  74.3  78.1 1014.0 15.2  1.009 -99.9 -99.99 -9.99
2019/06/18 23:42 EDT    3.27   3.65    2  198    3  74.3  78.3 1013.9 15.1  1.009 -99.9 -99.99 -9.99
2019/06/18 23:48 EDT    3.25   3.61    2  189    3  74.3  78.1 1013.9 15.2  1.009 -99.9 -99.99 -9.99
2019/06/18 23:54 EDT    3.22   3.58    2  193    3  74.3  78.1 1013.7 15.2  1.009 -99.9 -99.99 -9.99
2019/06/19 00:00 EDT    3.20   3.55    2  190    3  74.5  78.1 1013.7 15.2  1.009 -99.9 -99.99 -9.99
2019/06/19 00:06 EDT    3.17   3.51    2  216    2  74.3  78.3 1013.7 15.1  1.009 -99.9 -99.99 -9.99
2019/06/19 00:12 EDT    3.13   3.48    2  232    3  74.3  78.3 1013.8 15.1  1.009 -99.9 -99.99 -9.99
2019/06/19 00:18 EDT    3.09   3.44    2  227    3  74.1  78.1 1013.8 15.2  1.009 -99.9 -99.99 -9.99
2019/06/19 00:24 EDT    3.05   3.40    2  218    4  73.9  78.1 1013.8 15.2  1.009 -99.9 -99.99 -9.99
2019/06/19 00:30 EDT    3.01   3.36    3  240    4  73.9  78.1 1013.8 15.3  1.009 -99.9 -99.99 -9.99
2019/06/19 00:36 EDT    2.96   3.31    3  209    3  73.9  78.3 1013.8 15.1  1.009 -99.9 -99.99 -9.99
2019/06/19 00:42 EDT    2.92   3.27    2  192    3  73.9  78.4 1013.7 15.1  1.009 -99.9 -99.99 -9.99
2019/06/19 00:48 EDT    2.86   3.22    2  198    3  73.9  78.1 1013.7 15.4  1.009 -99.9 -99.99 -9.99
2019/06/19 00:54 EDT    2.81   3.17    3  190    3  73.8  78.1 1013.6 15.3  1.009 -99.9 -99.99 -9.99
2019/06/19 01:00 EDT    2.75   3.12    3  202    4  73.8  78.1 1013.6 15.2  1.009 -99.9 -99.99 -9.99
2019/06/19 01:06 EDT    2.70   3.07    2  205    3  73.9  78.1 1013.5 15.2  1.009 -99.9 -99.99 -9.99
2019/06/19 01:12 EDT    2.63   3.02    2  195    3  73.8  78.3 1013.4 15.2  1.009 -99.9 -99.99 -9.99
2019/06/19 01:18 EDT    2.57   2.97    2  203    3  73.6  78.1 1013.3 15.3  1.009 -99.9 -99.99 -9.99
2019/06/19 01:24 EDT    2.51   2.91    2  188    3  73.8  78.3 1013.2 15.2  1.009 -99.9 -99.99 -9.99
2019/06/19 01:30 EDT    2.44   2.87    3  172    3  73.6  78.3 1013.1 15.2  1.009 -99.9 -99.99 -9.99
2019/06/19 01:36 EDT    2.37   2.82    3  168    4  73.6  78.4 1012.9 14.9  1.009 -99.9 -99.99 -9.99
2019/06/19 01:42 EDT    2.30   2.77    2  194    3  73.6  78.6 1012.8 14.9  1.009 -99.9 -99.99 -9.99
2019/06/19 01:48 EDT    2.23   2.71    2  195    3  73.6  78.4 1012.7 15.0  1.009 -99.9 -99.99 -9.99
2019/06/19 01:54 EDT    2.15   2.65    2  187    3  73.6  78.4 1012.6 15.1  1.009 -99.9 -99.99 -9.99
2019/06/19 02:00 EDT    2.08   2.59    2  183    3  73.6  78.4 1012.5 15.0  1.009 -99.9 -99.99 -9.99
2019/06/19 02:06 EDT    2.00   2.52    2  191    3  73.8  78.4 1012.5 15.0  1.009 -99.9 -99.99 -9.99
2019/06/19 02:12 EDT    1.93   2.46    2  179    3  73.8  78.4 1012.4 15.0  1.009 -99.9 -99.99 -9.99
2019/06/19 02:18 EDT    1.85   2.40    2  173    3  73.9  78.6 1012.4 14.8  1.009 -99.9 -99.99 -9.99
2019/06/19 02:24 EDT    1.77   2.33    2  161    3  73.9  78.6 1012.3 14.8  1.009 -99.9 -99.99 -9.99
2019/06/19 02:30 EDT    1.69   2.25    2  149    4  74.1  78.8 1012.2 14.6  1.009 -99.9 -99.99 -9.99
2019/06/19 02:36 EDT    1.61   2.18    2  150    4  74.1  78.8 1012.0 14.5  1.009 -99.9 -99.99 -9.99
2019/06/19 02:42 EDT    1.53   2.11    3  150    4  74.1  78.8 1011.9 14.6  1.009 -99.9 -99.99 -9.99
2019/06/19 02:48 EDT    1.45   2.04    3  154    4  74.1  78.8 1011.7 14.5  1.009 -99.9 -99.99 -9.99
2019/06/19 02:54 EDT    1.37   1.97    3  160    4  74.3  78.8 1011.7 14.5  1.009 -99.9 -99.99 -9.99
2019/06/19 03:00 EDT    1.29   1.89    3  181    4  74.3  78.8 1011.6 14.5  1.009 -99.9 -99.99 -9.99
2019/06/19 03:06 EDT    1.21   1.81    2  197    4  74.5  78.8 1011.5 14.5  1.009 -99.9 -99.99 -9.99
2019/06/19 03:12 EDT    1.13   1.74    2  194    4  74.3  78.6 1011.4 14.7  1.009 -99.9 -99.99 -9.99
2019/06/19 03:18 EDT    1.05   1.66    2  209    4  74.5  78.8 1011.4 14.5  1.009 -99.9 -99.99 -9.99
2019/06/19 03:24 EDT    0.97   1.58    2  188    4  74.3  78.8 1011.3 14.5  1.009 -99.9 -99.99 -9.99
2019/06/19 03:30 EDT    0.90   1.50    3  207    4  74.3  78.6 1011.3 14.7  1.009 -99.9 -99.99 -9.99
2019/06/19 03:36 EDT    0.83   1.42    3  219    4  74.3  78.8 1011.3 14.4  1.009 -99.9 -99.99 -9.99
2019/06/19 03:42 EDT    0.76   1.34    3  213    4  74.3  78.8 1011.2 14.4  1.008 -99.9 -99.99 -9.99
2019/06/19 03:48 EDT    0.69   1.27    3  204    4  74.3  78.8 1011.2 14.2  1.008 -99.9 -99.99 -9.99
2019/06/19 03:54 EDT    0.62   1.21    3  219    4  74.3  78.8 1011.2 14.2  1.008 -99.9 -99.99 -9.99
2019/06/19 04:00 EDT    0.56   1.15    3  191    4  74.3  78.8 1011.1 14.4  1.008 -99.9 -99.99 -9.99
2019/06/19 04:06 EDT    0.50   1.09    2  201    3  74.5  78.8 1011.1 14.2  1.008 -99.9 -99.99 -9.99
2019/06/19 04:12 EDT    0.44   1.03    2  208    4  74.5  78.8 1011.1 14.2  1.008 -99.9 -99.99 -9.99
2019/06/19 04:18 EDT    0.39   0.96    3  199    4  74.5  79.0 1011.2 14.0  1.008 -99.9 -99.99 -9.99
2019/06/19 04:24 EDT    0.34   0.91    4  198    6  74.5  79.0 1011.2 13.9  1.008 -99.9 -99.99 -9.99
2019/06/19 04:30 EDT    0.29   0.86    3  203    4  74.7  79.0 1011.2 13.9  1.008 -99.9 -99.99 -9.99
2019/06/19 04:36 EDT    0.25   0.82    3  192    5  74.7  79.0 1011.2 13.7  1.008 -99.9 -99.99 -9.99
2019/06/19 04:42 EDT    0.21   0.78    2  185    5  74.7  79.0 1011.1 13.8  1.008 -99.9 -99.99 -9.99
2019/06/19 04:48 EDT    0.17   0.75    3  172    4  74.8  79.0 1011.0 13.8  1.008 -99.9 -99.99 -9.99
2019/06/19 04:54 EDT    0.14   0.72    4  160    5  75.0  79.0 1010.8 13.8  1.008 -99.9 -99.99 -9.99
2019/06/19 05:00 EDT    0.11   0.70    3  192    5  75.0  79.0 1010.9 13.9  1.008 -99.9 -99.99 -9.99
2019/06/19 05:06 EDT    0.09   0.68    2  202    6  75.0  79.0 1010.8 13.7  1.008 -99.9 -99.99 -9.99
2019/06/19 05:12 EDT    0.07   0.66    2  206    3  75.0  79.0 1010.8 13.7  1.008 -99.9 -99.99 -9.99
2019/06/19 05:18 EDT    0.06   0.65    3  200    4  75.0  79.0 1010.9 13.7  1.008 -99.9 -99.99 -9.99
2019/06/19 05:24 EDT    0.05   0.64    3  183    4  74.8  79.0 1010.9 13.7  1.008 -99.9 -99.99 -9.99
2019/06/19 05:30 EDT    0.04   0.65    3  205    4  74.8  79.0 1010.9 13.6  1.008 -99.9 -99.99 -9.99
2019/06/19 05:36 EDT    0.04   0.65    2  187    4  74.8  79.0 1010.8 13.6  1.008 -99.9 -99.99 -9.99
2019/06/19 05:42 EDT    0.04   0.66    3  197    4  74.8  79.0 1010.8 13.6  1.008 -99.9 -99.99 -9.99
2019/06/19 05:48 EDT    0.05   0.68    3  203    4  74.8  79.0 1010.7 13.7  1.008 -99.9 -99.99 -9.99
2019/06/19 05:54 EDT    0.06   0.70    2  172    4  74.8  79.0 1010.6 13.7  1.008 -99.9 -99.99 -9.99
2019/06/19 06:00 EDT    0.07   0.72    2  175    4  74.8  79.0 1010.6 13.6  1.008 -99.9 -99.99 -9.99
2019/06/19 06:06 EDT    0.09   0.75    3  196    4  74.8  79.0 1010.7 13.6  1.008 -99.9 -99.99 -9.99
2019/06/19 06:12 EDT    0.11   0.77    3  174    4  75.0  79.0 1010.7 13.6  1.008 -99.9 -99.99 -9.99
2019/06/19 06:18 EDT    0.13   0.82    3  176    5  75.0  79.0 1010.7 13.6  1.008 -99.9 -99.99 -9.99
2019/06/19 06:24 EDT    0.16   0.85    2  172    4  75.2  79.0 1010.7 13.5  1.008 -99.9 -99.99 -9.99
2019/06/19 06:30 EDT    0.19   0.88    2  177    4  75.2  79.0 1010.7 13.6  1.008 -99.9 -99.99 -9.99
2019/06/19 06:36 EDT    0.22   0.93    3  175    4  75.2  79.0 1010.8 13.6  1.008 -99.9 -99.99 -9.99
2019/06/19 06:42 EDT    0.26   0.98    2  196    4  75.4  79.0 1010.8 13.6  1.008 -99.9 -99.99 -9.99
2019/06/19 06:48 EDT    0.29   1.03    2  199    4  75.4  79.0 1010.8 13.7  1.008 -99.9 -99.99 -9.99
2019/06/19 06:54 EDT    0.34   1.07    3  180    5  75.6  79.0 1010.9 13.6  1.008 -99.9 -99.99 -9.99
2019/06/19 07:00 EDT    0.38   1.12    2  189    4  75.7  79.0 1010.9 13.6  1.008 -99.9 -99.99 -9.99
2019/06/19 07:06 EDT    0.43   1.16    3  193    5  75.7  79.0 1010.9 13.6  1.008 -99.9 -99.99 -9.99
2019/06/19 07:12 EDT    0.47   1.20    2  197    5  76.1  79.0 1010.9 13.7  1.008 -99.9 -99.99 -9.99
2019/06/19 07:18 EDT    0.53   1.24    3  200    5  76.3  79.0 1010.9 13.7  1.008 -99.9 -99.99 -9.99
2019/06/19 07:24 EDT    0.58   1.28    4  190    7  76.5  79.0 1011.0 13.7  1.008 -99.9 -99.99 -9.99
2019/06/19 07:30 EDT    0.63   1.32    4  208    7  76.5  79.0 1011.0 13.7  1.008 -99.9 -99.99 -9.99
2019/06/19 07:36 EDT    0.69   1.37    4  214    5  76.5  79.0 1011.0 -9.9 -9.999 -99.9 -99.99 -9.99
2019/06/19 07:42 EDT    0.75   1.41    4  197    5  76.6  79.0 1011.0 -9.9 -9.999 -99.9 -99.99 -9.99
2019/06/19 07:48 EDT    0.81   1.44    5  201    7  76.8  78.8 1011.0 13.7  1.008 -99.9 -99.99 -9.99
2019/06/19 07:54 EDT    0.87   1.49    3  206    7  77.0  78.8 1011.0 14.0  1.008 -99.9 -99.99 -9.99
2019/06/19 08:00 EDT    0.93   1.55    4  201    7  77.0  78.8 1011.1 14.0  1.008 -99.9 -99.99 -9.99
2019/06/19 08:06 EDT    1.00   1.61    4  207    7  77.4  78.8 1011.0 14.0  1.008 -99.9 -99.99 -9.99
2019/06/19 08:12 EDT    1.07   1.67    3  233    7  77.5  78.8 1011.1 14.0  1.008 -99.9 -99.99 -9.99
2019/06/19 08:18 EDT    1.13   1.73    4  230    6  77.5  78.8 1011.2 13.9  1.008 -99.9 -99.99 -9.99
2019/06/19 08:24 EDT    1.20   1.77    6  234    8  77.5  78.8 1011.3 13.8  1.008 -99.9 -99.99 -9.99
2019/06/19 08:30 EDT    1.27   1.83    2  228    6  77.7  78.8 1011.3 13.9  1.008 -99.9 -99.99 -9.99
2019/06/19 08:36 EDT    1.34   1.89    4  216    6  77.7  78.8 1011.2 13.8  1.008 -99.9 -99.99 -9.99
2019/06/19 08:42 EDT    1.41   1.94    5  239    7  77.7  78.6 1011.3 14.1  1.008 -99.9 -99.99 -9.99
2019/06/19 08:48 EDT    1.48   2.00    4  229    6  77.7  78.6 1011.3 14.1  1.008 -99.9 -99.99 -9.99
2019/06/19 08:54 EDT    1.55   2.07    5  235    6  77.9  78.8 1011.3 14.0  1.008 -99.9 -99.99 -9.99
2019/06/19 09:00 EDT    1.62   2.12    4  231    7  77.9  78.8 1011.4 13.9  1.008 -99.9 -99.99 -9.99
2019/06/19 09:06 EDT    1.69   2.18    3  215    6  78.1  78.6 1011.4 14.1  1.008 -99.9 -99.99 -9.99
2019/06/19 09:12 EDT    1.76   2.25    5  241    7  78.1  78.6 1011.3 14.3  1.008 -99.9 -99.99 -9.99
2019/06/19 09:18 EDT    1.83   2.32    5  217    7  78.1  78.4 1011.3 14.5  1.009 -99.9 -99.99 -9.99
2019/06/19 09:24 EDT    1.90   2.39    3  230    6  78.3  78.8 1011.2 13.9  1.008 -99.9 -99.99 -9.99
2019/06/19 09:30 EDT    1.97   2.47    4  209    6  78.4  78.6 1011.1 14.0  1.008 -99.9 -99.99 -9.99
2019/06/19 09:36 EDT    2.04   2.55    4  202    7  78.6  78.6 1011.1 14.2  1.008 -99.9 -99.99 -9.99
2019/06/19 09:42 EDT    2.10   2.62    6  201    8  78.8  78.8 1011.1 14.0  1.008 -99.9 -99.99 -9.99
2019/06/19 09:48 EDT    2.16   2.69    3  229    6  78.8  78.6 1011.0 14.2  1.008 -99.9 -99.99 -9.99
2019/06/19 09:54 EDT    2.23   2.77    6  217    7  79.0  78.6 1010.9 14.0  1.008 -99.9 -99.99 -9.99
2019/06/19 10:00 EDT    2.28   2.83    5  235    7  79.0  78.6 1010.9 14.3  1.008 -99.9 -99.99 -9.99
2019/06/19 10:06 EDT    2.34   2.90    6  244    7  79.2  78.6 1010.8 14.3  1.008 -99.9 -99.99 -9.99
2019/06/19 10:12 EDT    2.39   2.97    4  232    7  79.2  78.4 1010.8 14.5  1.009 -99.9 -99.99 -9.99
2019/06/19 10:18 EDT    2.44   3.03    3  252    6  79.2  78.3 1010.8 14.7  1.009 -99.9 -99.99 -9.99
2019/06/19 10:24 EDT    2.49   3.09    5  235    7  79.3  78.3 1010.8 14.6  1.009 -99.9 -99.99 -9.99
2019/06/19 10:30 EDT    2.54   3.15    4  255    5  79.3  78.4 1010.9 14.5  1.009 -99.9 -99.99 -9.99
2019/06/19 10:36 EDT    2.58   3.20    5  242    9  79.5  78.6 1010.9 14.3  1.008 -99.9 -99.99 -9.99
2019/06/19 10:42 EDT    2.62   3.25    5  247    8  79.3  78.6 1010.8 14.1  1.008 -99.9 -99.99 -9.99
2019/06/19 10:48 EDT    2.65   3.29    4  243    8  79.3  78.6 1010.8 14.3  1.008 -99.9 -99.99 -9.99
2019/06/19 10:54 EDT    2.68   3.33    5  245    7  79.5  78.4 1010.7 14.4  1.009 -99.9 -99.99 -9.99
2019/06/19 11:00 EDT    2.71   3.36    4  264    7  79.5  78.4 1010.6 14.4  1.009 -99.9 -99.99 -9.99
2019/06/19 11:06 EDT    2.73   3.38    4  239    7  79.7  78.4 1010.6 14.5  1.009 -99.9 -99.99 -9.99
2019/06/19 11:12 EDT    2.75   3.40    4  223    6  79.9  78.4 1010.6 14.5  1.009 -99.9 -99.99 -9.99
2019/06/19 11:18 EDT    2.76   3.41    4  237    6  79.7  78.4 1010.5 14.7  1.009 -99.9 -99.99 -9.99
2019/06/19 11:24 EDT    2.77   3.42    5  264    8  79.7  78.4 1010.5 14.8  1.009 -99.9 -99.99 -9.99
2019/06/19 11:30 EDT    2.78   3.42    4  237    7  79.9  78.4 1010.4 14.8  1.009 -99.9 -99.99 -9.99
2019/06/19 11:36 EDT    2.78   3.42    5  257    7  79.9  78.4 1010.4 14.8  1.009 -99.9 -99.99 -9.99
2019/06/19 11:42 EDT    2.78   3.41    5  251    7  79.7  78.4 1010.3 14.9  1.009 -99.9 -99.99 -9.99
2019/06/19 11:48 EDT    2.78   3.40    4  246    7  79.9  78.3 1010.3 15.0  1.009 -99.9 -99.99 -9.99
2019/06/19 11:54 EDT    2.77   3.40    5  263    7  79.9  78.3 1010.3 15.2  1.009 -99.9 -99.99 -9.99
2019/06/19 12:00 EDT    2.75   3.38    5  233    7  79.9  78.3 1010.2 15.2  1.009 -99.9 -99.99 -9.99
2019/06/19 12:06 EDT    2.74   3.36    5  227    7  79.7  78.3 1010.1 15.2  1.009 -99.9 -99.99 -9.99
2019/06/19 12:12 EDT    2.72   3.33    5  225    7  79.7  78.1 1010.0 15.2  1.009 -99.9 -99.99 -9.99
2019/06/19 12:18 EDT    2.70   3.30    2  238    4  80.1  78.1 1010.0 15.2  1.009 -99.9 -99.99 -9.99
2019/06/19 12:24 EDT    2.67   3.27    4  228    6  80.2  78.1 1009.9 15.1  1.009 -99.9 -99.99 -9.99
2019/06/19 12:30 EDT    2.64   3.24    5  276    6  80.2  78.1 1009.8 15.2  1.009 -99.9 -99.99 -9.99
2019/06/19 12:36 EDT    2.61   3.20    5  274    6  80.4  78.1 1009.8 15.2  1.009 -99.9 -99.99 -9.99
2019/06/19 12:42 EDT    2.58   3.15    4  253    7  80.4  78.1 1009.8 15.2  1.009 -99.9 -99.99 -9.99
2019/06/19 12:48 EDT    2.54   3.10    4  246    6  80.6  78.3 1009.7 15.0  1.009 -99.9 -99.99 -9.99
2019/06/19 12:54 EDT    2.50   3.06    5  248    7  80.8  78.1 1009.6 15.2  1.009 -99.9 -99.99 -9.99
2019/06/19 13:00 EDT    2.46   3.01    5  247    7  80.8  78.3 1009.5 15.0  1.009 -99.9 -99.99 -9.99
2019/06/19 13:06 EDT    2.41   2.95    4  246    6  80.8  78.3 1009.4 14.9  1.009 -99.9 -99.99 -9.99
2019/06/19 13:12 EDT    2.36   2.89    5  234    8  80.8  78.3 1009.4 15.0  1.009 -99.9 -99.99 -9.99
2019/06/19 13:18 EDT    2.31   2.84    5  252    7  81.0 -99.9 1009.3 -9.9 -9.999 -99.9 -99.99 -9.99
2019/06/19 13:24 EDT    2.26   2.78    4  259    7  81.0 -99.9 1009.3 -9.9 -9.999 -99.9 -99.99 -9.99
2019/06/19 13:30 EDT    2.21   2.71    4  250    6  81.1 -99.9 1009.2 -9.9 -9.999 -99.9 -99.99 -9.99
2019/06/19 13:36 EDT    2.16   2.65    2  243    5  81.5 -99.9 1009.1 -9.9 -9.999 -99.9 -99.99 -9.99
2019/06/19 13:42 EDT    2.10 -99.99 -999 -999 -999 -99.9 -99.9 -999.9 -9.9 -9.999 -99.9 -99.99 -9.99
2019/06/19 13:48 EDT    2.04 -99.99 -999 -999 -999 -99.9 -99.9 -999.9 -9.9 -9.999 -99.9 -99.99 -9.99
2019/06/19 13:54 EDT    1.98 -99.99 -999 -999 -999 -99.9 -99.9 -999.9 -9.9 -9.999 -99.9 -99.99 -9.99
2019/06/19 14:00 EDT    1.92 -99.99 -999 -999 -999 -99.9 -99.9 -999.9 -9.9 -9.999 -99.9 -99.99 -9.99
2019/06/19 14:06 EDT    1.86 -99.99 -999 -999 -999 -99.9 -99.9 -999.9 -9.9 -9.999 -99.9 -99.99 -9.99
2019/06/19 14:12 EDT    1.80 -99.99 -999 -999 -999 -99.9 -99.9 -999.9 -9.9 -9.999 -99.9 -99.99 -9.99
2019/06/19 14:18 EDT    1.73 -99.99 -999 -999 -999 -99.9 -99.9 -999.9 -9.9 -9.999 -99.9 -99.99 -9.99
2019/06/19 14:24 EDT    1.67 -99.99 -999 -999 -999 -99.9 -99.9 -999.9 -9.9 -9.999 -99.9 -99.99 -9.99
2019/06/19 14:30 EDT    1.60 -99.99 -999 -999 -999 -99.9 -99.9 -999.9 -9.9 -9.999 -99.9 -99.99 -9.99
2019/06/19 14:36 EDT    1.53 -99.99 -999 -999 -999 -99.9 -99.9 -999.9 -9.9 -9.999 -99.9 -99.99 -9.99
2019/06/19 14:42 EDT    1.47 -99.99 -999 -999 -999 -99.9 -99.9 -999.9 -9.9 -9.999 -99.9 -99.99 -9.99
2019/06/19 14:48 EDT    1.40 -99.99 -999 -999 -999 -99.9 -99.9 -999.9 -9.9 -9.999 -99.9 -99.99 -9.99
2019/06/19 14:54 EDT    1.33 -99.99 -999 -999 -999 -99.9 -99.9 -999.9 -9.9 -9.999 -99.9 -99.99 -9.99
2019/06/19 15:00 EDT    1.26 -99.99 -999 -999 -999 -99.9 -99.9 -999.9 -9.9 -9.999 -99.9 -99.99 -9.99
2019/06/19 15:06 EDT    1.20 -99.99 -999 -999 -999 -99.9 -99.9 -999.9 -9.9 -9.999 -99.9 -99.99 -9.99
2019/06/19 15:12 EDT    1.13 -99.99 -999 -999 -999 -99.9 -99.9 -999.9 -9.9 -9.999 -99.9 -99.99 -9.99
2019/06/19 15:18 EDT    1.06 -99.99 -999 -999 -999 -99.9 -99.9 -999.9 -9.9 -9.999 -99.9 -99.99 -9.99
2019/06/19 15:24 EDT    1.00 -99.99 -999 -999 -999 -99.9 -99.9 -999.9 -9.9 -9.999 -99.9 -99.99 -9.99
2019/06/19 15:30 EDT    0.93 -99.99 -999 -999 -999 -99.9 -99.9 -999.9 -9.9 -9.999 -99.9 -99.99 -9.99
2019/06/19 15:36 EDT    0.87 -99.99 -999 -999 -999 -99.9 -99.9 -999.9 -9.9 -9.999 -99.9 -99.99 -9.99
2019/06/19 15:42 EDT    0.81 -99.99 -999 -999 -999 -99.9 -99.9 -999.9 -9.9 -9.999 -99.9 -99.99 -9.99
2019/06/19 15:48 EDT    0.75 -99.99 -999 -999 -999 -99.9 -99.9 -999.9 -9.9 -9.999 -99.9 -99.99 -9.99
2019/06/19 15:54 EDT    0.69 -99.99 -999 -999 -999 -99.9 -99.9 -999.9 -9.9 -9.999 -99.9 -99.99 -9.99
2019/06/19 16:00 EDT    0.64 -99.99 -999 -999 -999 -99.9 -99.9 -999.9 -9.9 -9.999 -99.9 -99.99 -9.99
2019/06/19 16:06 EDT    0.58 -99.99 -999 -999 -999 -99.9 -99.9 -999.9 -9.9 -9.999 -99.9 -99.99 -9.99
2019/06/19 16:12 EDT    0.53 -99.99 -999 -999 -999 -99.9 -99.9 -999.9 -9.9 -9.999 -99.9 -99.99 -9.99
2019/06/19 16:18 EDT    0.48 -99.99 -999 -999 -999 -99.9 -99.9 -999.9 -9.9 -9.999 -99.9 -99.99 -9.99
2019/06/19 16:24 EDT    0.44 -99.99 -999 -999 -999 -99.9 -99.9 -999.9 -9.9 -9.999 -99.9 -99.99 -9.99
2019/06/19 16:30 EDT    0.40 -99.99 -999 -999 -999 -99.9 -99.9 -999.9 -9.9 -9.999 -99.9 -99.99 -9.99
2019/06/19 16:36 EDT    0.36   1.13    5  219    9  84.9  79.3 1006.9 14.6  1.009 -99.9 -99.99 -9.99
2019/06/19 16:42 EDT    0.32   1.10    4  229    6  84.7  79.5 1007.0 14.5  1.008 -99.9 -99.99 -9.99
2019/06/19 16:48 EDT    0.29   1.09    4  243    4  84.7  79.5 1006.9 14.5  1.008 -99.9 -99.99 -9.99
2019/06/19 16:54 EDT    0.26   1.06    5  233    6  84.7  79.3 1006.9 14.6  1.009 -99.9 -99.99 -9.99
2019/06/19 17:00 EDT    0.24   1.04    5  244    9  84.7  79.9 1006.9 14.3  1.008 -99.9 -99.99 -9.99
2019/06/19 17:06 EDT    0.22   1.01    6  248    9  84.9  79.7 1007.0 14.5  1.008 -99.9 -99.99 -9.99
2019/06/19 17:12 EDT    0.20   0.99    5  232    9  84.9  79.7 1007.1 14.3  1.008 -99.9 -99.99 -9.99
2019/06/19 17:18 EDT    0.19   0.97    8  197   12  84.9  79.5 1007.3 14.5  1.008 -99.9 -99.99 -9.99
2019/06/19 17:24 EDT    0.18   0.97    7  195   12  81.9  79.7 1007.4 14.4  1.008 -99.9 -99.99 -9.99
2019/06/19 17:30 EDT    0.18   0.97    8  203   12  80.2  80.1 1007.4 14.2  1.008 -99.9 -99.99 -9.99
2019/06/19 17:36 EDT    0.18   0.97    7  206   12  79.9  80.1 1007.4 14.2  1.008 -99.9 -99.99 -9.99
2019/06/19 17:42 EDT    0.18   0.97    2  202    8  77.9  79.9 1007.4 14.4  1.008 -99.9 -99.99 -9.99
2019/06/19 17:48 EDT    0.19   0.98    1  192    2  77.7  79.7 1007.1 14.5  1.008 -99.9 -99.99 -9.99
2019/06/19 17:54 EDT    0.20   0.99    4  172    5  77.5  79.7 1006.8 14.4  1.008 -99.9 -99.99 -9.99
2019/06/19 18:00 EDT    0.21   1.00    3  182    5  77.5  79.9 1006.7 14.3  1.008 -99.9 -99.99 -9.99
2019/06/19 18:06 EDT    0.23   1.02    3  184    5  77.7  80.2 1006.7 14.2  1.008 -99.9 -99.99 -9.99
2019/06/19 18:12 EDT    0.25   1.02    3  185    5  77.9  80.4 1006.8 14.1  1.008 -99.9 -99.99 -9.99
2019/06/19 18:18 EDT    0.28   1.03    3  177    4  77.7  80.4 1006.8 14.1  1.008 -99.9 -99.99 -9.99
2019/06/19 18:24 EDT    0.31   1.06    4  171    5  77.9  80.2 1007.0 14.2  1.008 -99.9 -99.99 -9.99
2019/06/19 18:30 EDT    0.34   1.07    4  175    4  77.9  79.9 1007.2 14.2  1.008 -99.9 -99.99 -9.99
2019/06/19 18:36 EDT    0.37   1.10    3  177    4  78.1  79.7 1007.4 14.3  1.008 -99.9 -99.99 -9.99
2019/06/19 18:42 EDT    0.41   1.13    2  177    3  78.1  79.7 1007.3 14.2  1.008 -99.9 -99.99 -9.99
2019/06/19 18:48 EDT    0.45   1.17    2  178    3  78.3  79.9 1007.3 14.2  1.008 -99.9 -99.99 -9.99
2019/06/19 18:54 EDT    0.50   1.21    3  187    4  78.3  79.5 1007.3 14.4  1.008 -99.9 -99.99 -9.99
2019/06/19 19:00 EDT    0.54   1.26    3  179    5  78.1  79.3 1007.5 14.3  1.008 -99.9 -99.99 -9.99
2019/06/19 19:06 EDT    0.59   1.31    3  169    4  78.4  79.3 1007.5 14.4  1.008 -99.9 -99.99 -9.99
2019/06/19 19:12 EDT    0.64   1.37    3  180    4  78.4  79.3 1007.5 14.3  1.008 -99.9 -99.99 -9.99
2019/06/19 19:18 EDT    0.69   1.41    4  188    5  78.4  79.2 1007.5 14.4  1.008 -99.9 -99.99 -9.99
2019/06/19 19:24 EDT    0.75   1.47    3  174    5  78.4  79.3 1007.5 14.4  1.008 -99.9 -99.99 -9.99
2019/06/19 19:30 EDT    0.80   1.53    5  171    8  78.6  79.3 1007.4 14.4  1.008 -99.9 -99.99 -9.99
2019/06/19 19:36 EDT    0.86   1.57    4  165    8  78.4  79.5 1007.3 14.2  1.008 -99.9 -99.99 -9.99
2019/06/19 19:42 EDT    0.92   1.64    4  171    5  78.4  79.5 1007.2 14.2  1.008 -99.9 -99.99 -9.99
2019/06/19 19:48 EDT    0.98   1.70    4  173    5  78.3  79.5 1007.2 14.2  1.008 -99.9 -99.99 -9.99
2019/06/19 19:54 EDT    1.04   1.75    5  163    8  78.1  79.7 1007.2 14.1  1.008 -99.9 -99.99 -9.99
2019/06/19 20:00 EDT    1.11   1.81    4  162    6  78.1  79.5 1007.3 14.1  1.008 -99.9 -99.99 -9.99
2019/06/19 20:06 EDT    1.17   1.88    5  163    7  78.1  79.7 1007.4 14.1  1.008 -99.9 -99.99 -9.99
2019/06/19 20:12 EDT    1.24   1.96    4  154    7  78.1  79.7 1007.4 14.1  1.008 -99.9 -99.99 -9.99
2019/06/19 20:18 EDT    1.30   2.02    4  154    6  77.9  79.7 1007.4 14.1  1.008 -99.9 -99.99 -9.99
2019/06/19 20:24 EDT    1.37   2.10    4  160    6  77.7  79.5 1007.4 14.1  1.008 -99.9 -99.99 -9.99
2019/06/19 20:30 EDT    1.44   2.19    5  162    7  77.5  79.3 1007.5 14.3  1.008 -99.9 -99.99 -9.99
2019/06/19 20:36 EDT    1.51   2.26    5  170    7  77.4  79.5 1007.5 14.1  1.008 -99.9 -99.99 -9.99
2019/06/19 20:42 EDT    1.58   2.33    7  168    9  77.4  79.3 1007.5 14.4  1.008 -99.9 -99.99 -9.99
2019/06/19 20:48 EDT    1.65   2.41    7  165   11  77.0  79.7 1007.4 14.0  1.008 -99.9 -99.99 -9.99
2019/06/19 20:54 EDT    1.72   2.49    6  176   10  76.8  79.3 1007.4 14.4  1.008 -99.9 -99.99 -9.99
2019/06/19 21:00 EDT    1.80   2.55    6  185    9  76.8  79.7 1007.3 14.0  1.008 -99.9 -99.99 -9.99
2019/06/19 21:06 EDT    1.87   2.61    6  189    9  76.6  79.3 1007.3 14.3  1.008 -99.9 -99.99 -9.99
2019/06/19 21:12 EDT    1.94   2.67    6  177   11  76.5  79.5 1007.3 14.3  1.008 -99.9 -99.99 -9.99
2019/06/19 21:18 EDT    2.01   2.72    6  183    9  76.3  79.2 1007.3 14.5  1.009 -99.9 -99.99 -9.99
2019/06/19 21:24 EDT    2.08   2.78    5  185    8  76.1  79.3 1007.2 14.4  1.008 -99.9 -99.99 -9.99
2019/06/19 21:30 EDT    2.15   2.84    4  182    8  76.1  78.8 1007.3 14.9  1.009 -99.9 -99.99 -9.99
2019/06/19 21:36 EDT    2.22   2.90    5  190    8  75.9  79.2 1007.3 14.5  1.008 -99.9 -99.99 -9.99
2019/06/19 21:42 EDT    2.29   2.95    5  190    8  75.7  78.6 1007.2 15.1  1.009 -99.9 -99.99 -9.99
2019/06/19 21:48 EDT    2.36   3.01    4  196    7  75.7  78.6 1007.1 15.0  1.009 -99.9 -99.99 -9.99
2019/06/19 21:54 EDT    2.43   3.08    4  186    7  75.7  79.0 1007.3 14.7  1.009 -99.9 -99.99 -9.99
2019/06/19 22:00 EDT    2.49   3.11    6  193    7  75.7  78.6 1007.2 15.1  1.009 -99.9 -99.99 -9.99
2019/06/19 22:06 EDT    2.56   3.17    4  201    8  75.7  78.8 1007.1 15.0  1.009 -99.9 -99.99 -9.99
2019/06/19 22:12 EDT    2.62   3.23    4  213    5  75.7  78.8 1007.2 15.0  1.009 -99.9 -99.99 -9.99
2019/06/19 22:18 EDT    2.68   3.28    5  196    7  75.7  79.0 1007.1 15.0  1.009 -99.9 -99.99 -9.99
2019/06/19 22:24 EDT    2.74   3.33    5  198    7  75.7  78.8 1007.1 15.1  1.009 -99.9 -99.99 -9.99
2019/06/19 22:30 EDT    2.79   3.38    5  200    8  75.7  78.6 1007.1 15.2  1.009 -99.9 -99.99 -9.99
2019/06/19 22:36 EDT    2.84   3.43    5  203    9  75.6  78.4 1007.1 15.4  1.009 -99.9 -99.99 -9.99
2019/06/19 22:42 EDT    2.89   3.47    6  211    9  75.6  78.3 1007.1 15.6  1.009 -99.9 -99.99 -9.99
2019/06/19 22:48 EDT    2.94   3.50    6  200    9  75.4  78.3 1007.2 15.7  1.009 -99.9 -99.99 -9.99
2019/06/19 22:54 EDT    2.98   3.53    4  192    8  75.2  78.4 1007.2 15.5  1.009 -99.9 -99.99 -9.99
2019/06/19 23:00 EDT    3.02   3.57    4  205    8  75.2  78.4 1007.1 15.5  1.009 -99.9 -99.99 -9.99
2019/06/19 23:06 EDT    3.05   3.60    5  208    8  75.0  78.3 1007.0 15.6  1.009 -99.9 -99.99 -9.99
2019/06/19 23:12 EDT    3.09   3.63    5  199   10  75.0  78.4 1007.0 15.5  1.009 -99.9 -99.99 -9.99
2019/06/19 23:18 EDT    3.11   3.65    5  207    9  75.0  78.4 1006.9 15.5  1.009 -99.9 -99.99 -9.99
2019/06/19 23:24 EDT    3.14   3.67    4  197    8  75.0  78.4 1006.8 15.4  1.009 -99.9 -99.99 -9.99
2019/06/19 23:30 EDT    3.16   3.69    5  199    8  75.0  78.4 1006.8 15.4  1.009 -99.9 -99.99 -9.99
2019/06/19 23:36 EDT    3.17   3.70    6  199   10  75.0  78.4 1006.8 15.5  1.009 -99.9 -99.99 -9.99
2019/06/19 23:42 EDT    3.19   3.70    6  200    9  75.2  78.4 1006.9 15.5  1.009 -99.9 -99.99 -9.99
2019/06/19 23:48 EDT    3.19   3.70    7  204   10  75.2  78.4 1006.8 15.5  1.009 -99.9 -99.99 -9.99
2019/06/19 23:54 EDT    3.20   3.70    6  193   11  75.4  78.3 1006.8 15.7  1.010 -99.9 -99.99 -9.99
2019/06/20 00:00 EDT    3.20   3.70    7  199   11  75.4  78.1 1006.9 15.8  1.010 -99.9 -99.99 -9.99
2019/06/20 00:06 EDT    3.19   3.70    8  215   10  75.4  78.1 1006.8 15.8  1.010 -99.9 -99.99 -9.99
2019/06/20 00:12 EDT    3.18   3.68    6  206   10  75.4  78.1 1006.8 15.9  1.010 -99.9 -99.99 -9.99
2019/06/20 00:18 EDT    3.17   3.67    7  193   12  75.6  77.9 1006.8 16.0  1.010 -99.9 -99.99 -9.99
2019/06/20 00:24 EDT    3.16   3.65    6  193   12  75.6  77.9 1006.5 16.0  1.010 -99.9 -99.99 -9.99
2019/06/20 00:30 EDT    3.14   3.63    6  193   12  75.6  77.7 1006.4 16.2  1.010 -99.9 -99.99 -9.99
2019/06/20 00:36 EDT    3.11   3.61    6  216   11  75.6  77.7 1006.4 16.4  1.010 -99.9 -99.99 -9.99
2019/06/20 00:42 EDT    3.09   3.59    6  213    8  75.7  77.7 1006.4 16.2  1.010 -99.9 -99.99 -9.99
2019/06/20 00:48 EDT    3.06   3.56    4  204    8  75.7  77.9 1006.3 16.0  1.010 -99.9 -99.99 -9.99
2019/06/20 00:54 EDT    3.02   3.53    4  200    7  75.6  77.9 1006.3 16.0  1.010 -99.9 -99.99 -9.99
2019/06/20 01:00 EDT    2.99   3.50    6  213    9  75.6  77.9 1006.3 16.0  1.010 -99.9 -99.99 -9.99
2019/06/20 01:06 EDT    2.95   3.47    5  210    8  75.6  77.9 1006.2 15.9  1.010 -99.9 -99.99 -9.99
2019/06/20 01:12 EDT    2.91   3.42    4  200    7  75.6  77.9 1006.1 15.9  1.010 -99.9 -99.99 -9.99
2019/06/20 01:18 EDT    2.86   3.39    5  201    7  75.4  78.1 1006.1 15.8  1.010 -99.9 -99.99 -9.99
2019/06/20 01:24 EDT    2.81   3.35    6  189    7  75.4  77.9 1006.0 15.9  1.010 -99.9 -99.99 -9.99
2019/06/20 01:30 EDT    2.76   3.31    6  204    8  75.4  78.1 1006.0 15.8  1.010 -99.9 -99.99 -9.99
2019/06/20 01:36 EDT    2.71   3.26    4  186    8  75.2  78.1 1006.0 15.8  1.010 -99.9 -99.99 -9.99
2019/06/20 01:42 EDT    2.66   3.23    3  179    6  75.2  78.1 1006.0 15.7  1.010 -99.9 -99.99 -9.99
2019/06/20 01:48 EDT    2.60   3.19    3  193    6  75.2  78.1 1005.9 15.7  1.010 -99.9 -99.99 -9.99
2019/06/20 01:54 EDT    2.54   3.13    3  180    6  75.2  78.1 1005.9 15.8  1.010 -99.9 -99.99 -9.99
2019/06/20 02:00 EDT    2.48   3.08    4  191    7  75.2  78.1 1005.8 15.8  1.010 -99.9 -99.99 -9.99
2019/06/20 02:06 EDT    2.42   3.04    4  186    7  75.0  78.1 1005.8 15.7  1.010 -99.9 -99.99 -9.99
2019/06/20 02:12 EDT    2.36   2.98    4  190    7  75.0  78.1 1005.8 15.8  1.010 -99.9 -99.99 -9.99
2019/06/20 02:18 EDT    2.29   2.92    4  187    7  75.2  78.1 1005.7 15.7  1.010 -99.9 -99.99 -9.99
2019/06/20 02:24 EDT    2.22   2.86    3  194    7  75.2  78.3 1005.6 15.6  1.009 -99.9 -99.99 -9.99
2019/06/20 02:30 EDT    2.16   2.80    3  194    6  75.2  78.1 1005.6 15.6  1.009 -99.9 -99.99 -9.99
2019/06/20 02:36 EDT    2.09   2.74    4  193    8  75.2  78.3 1005.6 15.5  1.009 -99.9 -99.99 -9.99
2019/06/20 02:42 EDT    2.01   2.68    3  204    8  75.2  78.3 1005.6 15.2  1.009 -99.9 -99.99 -9.99
2019/06/20 02:48 EDT    1.94   2.63    5  186    6  75.2  78.3 1005.6 15.3  1.009 -99.9 -99.99 -9.99
2019/06/20 02:54 EDT    1.87   2.58    4  218    7  75.4  78.4 1005.6 15.1  1.009 -99.9 -99.99 -9.99
2019/06/20 03:00 EDT    1.80   2.53    4  222    6  75.6  78.4 1005.5 15.3  1.009 -99.9 -99.99 -9.99
2019/06/20 03:06 EDT    1.72   2.48    4  215    6  75.4  78.4 1005.5 15.1  1.009 -99.9 -99.99 -9.99
2019/06/20 03:12 EDT    1.65   2.41    4  205    6  75.2  78.4 1005.5 15.1  1.009 -99.9 -99.99 -9.99
2019/06/20 03:18 EDT    1.57   2.35    4  198    7  75.2  78.4 1005.5 15.0  1.009 -99.9 -99.99 -9.99
2019/06/20 03:24 EDT    1.50   2.28    5  205    7  75.2  78.4 1005.5 15.1  1.009 -99.9 -99.99 -9.99
2019/06/20 03:30 EDT    1.42   2.22    4  205    7  75.2  78.4 1005.4 14.9  1.009 -99.9 -99.99 -9.99
2019/06/20 03:36 EDT    1.35   2.15    4  220    6  75.2  78.6 1005.4 14.7  1.009 -99.9 -99.99 -9.99
2019/06/20 03:42 EDT    1.27   2.07    4  212    7  75.2  78.4 1005.3 14.9  1.009 -99.9 -99.99 -9.99
2019/06/20 03:48 EDT    1.20   2.01    4  215    6  75.2  78.4 1005.3 15.1  1.009 -99.9 -99.99 -9.99
2019/06/20 03:54 EDT    1.13   1.94    3  222    6  75.2  78.4 1005.4 14.8  1.009 -99.9 -99.99 -9.99
2019/06/20 04:00 EDT    1.06   1.88    4  210    7  75.2  78.6 1005.4 14.6  1.009 -99.9 -99.99 -9.99
2019/06/20 04:06 EDT    0.99   1.81    3  204    7  75.0  78.4 1005.4 15.0  1.009 -99.9 -99.99 -9.99
2019/06/20 04:12 EDT    0.92   1.75    4  205    6  75.0  78.4 1005.4 15.0  1.009 -99.9 -99.99 -9.99
2019/06/20 04:18 EDT    0.85   1.69    4  203    6  75.0  78.6 1005.4 14.6  1.009 -99.9 -99.99 -9.99
2019/06/20 04:24 EDT    0.79   1.62    3  210    7  75.0  78.4 1005.4 14.7  1.009 -99.9 -99.99 -9.99
2019/06/20 04:30 EDT    0.72   1.56    4  213    6  75.0  78.4 1005.4 14.7  1.009 -99.9 -99.99 -9.99
2019/06/20 04:36 EDT    0.66   1.50    4  209    5  75.0  78.6 1005.3 14.5  1.009 -99.9 -99.99 -9.99
2019/06/20 04:42 EDT    0.60   1.43    3  202    6  75.0  78.4 1005.3 14.6  1.009 -99.9 -99.99 -9.99
2019/06/20 04:48 EDT    0.55   1.36    3  194    7  75.0  78.6 1005.4 14.5  1.009 -99.9 -99.99 -9.99
2019/06/20 04:54 EDT    0.50   1.30    4  202    6  74.8  78.6 1005.3 14.5  1.009 -99.9 -99.99 -9.99
2019/06/20 05:00 EDT    0.45   1.24    3  194    5  75.0  78.6 1005.3 14.6  1.009 -99.9 -99.99 -9.99
2019/06/20 05:06 EDT    0.40   1.18    2  201    5  74.8  78.6 1005.3 14.6  1.009 -99.9 -99.99 -9.99
2019/06/20 05:12 EDT    0.36   1.12    3  200    6  75.0  78.6 1005.4 14.4  1.008 -99.9 -99.99 -9.99
2019/06/20 05:18 EDT    0.32   1.07    3  198    5  74.8  78.6 1005.5 14.4  1.008 -99.9 -99.99 -9.99
2019/06/20 05:24 EDT    0.29   1.02    3  212    6  74.8  78.4 1005.5 14.7  1.009 -99.9 -99.99 -9.99
2019/06/20 05:30 EDT    0.26   0.98    4  210    9  74.8  78.6 1005.4 14.4  1.008 -99.9 -99.99 -9.99
2019/06/20 05:36 EDT    0.23   0.95    3  217    6  75.0  78.6 1005.4 14.3  1.008 -99.9 -99.99 -9.99
2019/06/20 05:42 EDT    0.21   0.91    3  217    6  75.0  78.6 1005.4 14.3  1.008 -99.9 -99.99 -9.99
2019/06/20 05:48 EDT    0.19   0.87    4  203    6  75.2  78.6 1005.5 14.3  1.008 -99.9 -99.99 -9.99
2019/06/20 05:54 EDT    0.17   0.83    5  204    6  75.2  78.6 1005.4 14.3  1.008 -99.9 -99.99 -9.99
2019/06/20 06:00 EDT    0.16   0.80    4  199    6  75.2  78.6 1005.4 14.2  1.008 -99.9 -99.99 -9.99
2019/06/20 06:06 EDT    0.15   0.78    4  201    6  75.2  78.6 1005.4 14.3  1.008 -99.9 -99.99 -9.99
2019/06/20 06:12 EDT    0.15   0.76    5  203    7  75.2  78.6 1005.4 14.2  1.008 -99.9 -99.99 -9.99
2019/06/20 06:18 EDT    0.15   0.75    4  210    7  75.2  78.6 1005.4 14.2  1.008 -99.9 -99.99 -9.99
2019/06/20 06:24 EDT    0.15   0.74    5  198    9  75.2  78.6 1005.3 14.2  1.008 -99.9 -99.99 -9.99
2019/06/20 06:30 EDT    0.16   0.74    4  199    7  75.4  78.4 1005.4 14.3  1.008 -99.9 -99.99 -9.99
2019/06/20 06:36 EDT    0.17   0.74    6  203    9  75.4  78.6 1005.4 14.2  1.008 -99.9 -99.99 -9.99
2019/06/20 06:42 EDT    0.18   0.75    7  223   11  75.4  78.4 1005.5 14.2  1.008 -99.9 -99.99 -9.99
2019/06/20 06:48 EDT    0.20   0.76    6  210   10  75.7  78.6 1005.5 14.1  1.008 -99.9 -99.99 -9.99
2019/06/20 06:54 EDT    0.22   0.79    6  217    9  75.7  78.6 1005.5 14.1  1.008 -99.9 -99.99 -9.99
2019/06/20 07:00 EDT    0.24   0.83    5  208    9  75.7  78.6 1005.4 14.1  1.008 -99.9 -99.99 -9.99
2019/06/20 07:06 EDT    0.27   0.87    6  219    9  75.9  78.6 1005.4 14.1  1.008 -99.9 -99.99 -9.99
2019/06/20 07:12 EDT    0.30   0.89    6  203    9  76.1  78.6 1005.3 14.1  1.008 -99.9 -99.99 -9.99
2019/06/20 07:18 EDT    0.33   0.93    6  225   11  76.3  78.6 1005.3 14.1  1.008 -99.9 -99.99 -9.99
2019/06/20 07:24 EDT    0.37   0.97    8  241   10  76.5  78.6 1005.4 14.2  1.008 -99.9 -99.99 -9.99
2019/06/20 07:30 EDT    0.40   1.04    7  226   11  76.6  78.6 1005.5 14.1  1.008 -99.9 -99.99 -9.99
2019/06/20 07:36 EDT    0.44   1.08    5  211   10  76.8  78.6 1005.5 14.2  1.008 -99.9 -99.99 -9.99
2019/06/20 07:42 EDT    0.48   1.12    6  232    9  77.0  78.6 1005.4 14.1  1.008 -99.9 -99.99 -9.99
2019/06/20 07:48 EDT    0.53   1.16    7  214   11  77.4  78.6 1005.3 14.0  1.008 -99.9 -99.99 -9.99
2019/06/20 07:54 EDT    0.57   1.21    6  226   11  77.5  78.6 1005.4 14.0  1.008 -99.9 -99.99 -9.99
2019/06/20 08:00 EDT    0.62   1.26    7  226   12  77.7  78.6 1005.4 14.0  1.008 -99.9 -99.99 -9.99
2019/06/20 08:06 EDT    0.67   1.30    6  230    9  77.9  78.6 1005.4 14.0  1.008 -99.9 -99.99 -9.99
2019/06/20 08:12 EDT    0.72   1.36    7  223   10  78.1  78.6 1005.4 14.0  1.008 -99.9 -99.99 -9.99
2019/06/20 08:18 EDT    0.77   1.41    7  234   12  78.3  78.6 1005.4 14.0  1.008 -99.9 -99.99 -9.99
2019/06/20 08:24 EDT    0.83   1.47    5  217   11  78.4  78.8 1005.4 13.9  1.008 -99.9 -99.99 -9.99
2019/06/20 08:30 EDT    0.88   1.52    8  226   11  78.6  78.8 1005.5 13.9  1.008 -99.9 -99.99 -9.99
2019/06/20 08:36 EDT    0.94   1.59    7  225   14  78.8  78.8 1005.6 13.9  1.008 -99.9 -99.99 -9.99
2019/06/20 08:42 EDT    1.00   1.63    9  241   12  79.0  79.0 1005.6 13.9  1.008 -99.9 -99.99 -9.99
2019/06/20 08:48 EDT    1.06   1.68    6  229   12  79.0  79.0 1005.5 13.9  1.008 -99.9 -99.99 -9.99
2019/06/20 08:54 EDT    1.12   1.74    8  238   14  79.3  78.6 1005.5 14.1  1.008 -99.9 -99.99 -9.99
2019/06/20 09:00 EDT    1.18   1.79    9  230   14  79.5  78.6 1005.5 14.0  1.008 -99.9 -99.99 -9.99
2019/06/20 09:06 EDT    1.24   1.85    9  238   11  79.5  78.6 1005.5 14.2  1.008 -99.9 -99.99 -9.99
2019/06/20 09:12 EDT    1.31   1.91    9  231   12  79.5  78.6 1005.5 14.2  1.008 -99.9 -99.99 -9.99
2019/06/20 09:18 EDT    1.37   1.98    9  236   12  79.7  78.6 1005.5 14.2  1.008 -99.9 -99.99 -9.99
2019/06/20 09:24 EDT    1.43 -99.99 -999 -999 -999 -99.9 -99.9 -999.9 -9.9 -9.999 -99.9 -99.99 -9.99
2019/06/20 09:30 EDT    1.50 -99.99 -999 -999 -999 -99.9 -99.9 -999.9 -9.9 -9.999 -99.9 -99.99 -9.99
2019/06/20 09:36 EDT    1.57 -99.99 -999 -999 -999 -99.9 -99.9 -999.9 -9.9 -9.999 -99.9 -99.99 -9.99
2019/06/20 09:42 EDT    1.63 -99.99 -999 -999 -999 -99.9 -99.9 -999.9 -9.9 -9.999 -99.9 -99.99 -9.99
2019/06/20 09:48 EDT    1.70 -99.99 -999 -999 -999 -99.9 -99.9 -999.9 -9.9 -9.999 -99.9 -99.99 -9.99
2019/06/20 09:54 EDT    1.76 -99.99 -999 -999 -999 -99.9 -99.9 -999.9 -9.9 -9.999 -99.9 -99.99 -9.99
2019/06/20 10:00 EDT    1.83 -99.99 -999 -999 -999 -99.9 -99.9 -999.9 -9.9 -9.999 -99.9 -99.99 -9.99
2019/06/20 10:06 EDT    1.89 -99.99 -999 -999 -999 -99.9 -99.9 -999.9 -9.9 -9.999 -99.9 -99.99 -9.99
2019/06/20 10:12 EDT    1.95 -99.99 -999 -999 -999 -99.9 -99.9 -999.9 -9.9 -9.999 -99.9 -99.99 -9.99
2019/06/20 10:18 EDT    2.02 -99.99 -999 -999 -999 -99.9 -99.9 -999.9 -9.9 -9.999 -99.9 -99.99 -9.99
2019/06/20 10:24 EDT    2.08 -99.99 -999 -999 -999 -99.9 -99.9 -999.9 -9.9 -9.999 -99.9 -99.99 -9.99
2019/06/20 10:30 EDT    2.14 -99.99 -999 -999 -999 -99.9 -99.9 -999.9 -9.9 -9.999 -99.9 -99.99 -9.99
2019/06/20 10:36 EDT    2.20 -99.99 -999 -999 -999 -99.9 -99.9 -999.9 -9.9 -9.999 -99.9 -99.99 -9.99
2019/06/20 10:42 EDT    2.25 -99.99 -999 -999 -999 -99.9 -99.9 -999.9 -9.9 -9.999 -99.9 -99.99 -9.99
2019/06/20 10:48 EDT    2.31 -99.99 -999 -999 -999 -99.9 -99.9 -999.9 -9.9 -9.999 -99.9 -99.99 -9.99
2019/06/20 10:54 EDT    2.36 -99.99 -999 -999 -999 -99.9 -99.9 -999.9 -9.9 -9.999 -99.9 -99.99 -9.99
2019/06/20 11:00 EDT    2.41 -99.99 -999 -999 -999 -99.9 -99.9 -999.9 -9.9 -9.999 -99.9 -99.99 -9.99
2019/06/20 11:06 EDT    2.45 -99.99 -999 -999 -999 -99.9 -99.9 -999.9 -9.9 -9.999 -99.9 -99.99 -9.99
2019/06/20 11:12 EDT    2.50 -99.99 -999 -999 -999 -99.9 -99.9 -999.9 -9.9 -9.999 -99.9 -99.99 -9.99
2019/06/20 11:18 EDT    2.54 -99.99 -999 -999 -999 -99.9 -99.9 -999.9 -9.9 -9.999 -99.9 -99.99 -9.99
2019/06/20 11:24 EDT    2.57 -99.99 -999 -999 -999 -99.9 -99.9 -999.9 -9.9 -9.999 -99.9 -99.99 -9.99
2019/06/20 11:30 EDT    2.61 -99.99 -999 -999 -999 -99.9 -99.9 -999.9 -9.9 -9.999 -99.9 -99.99 -9.99
2019/06/20 11:36 EDT    2.64 -99.99 -999 -999 -999 -99.9 -99.9 -999.9 -9.9 -9.999 -99.9 -99.99 -9.99
2019/06/20 11:42 EDT    2.66 -99.99 -999 -999 -999 -99.9 -99.9 -999.9 -9.9 -9.999 -99.9 -99.99 -9.99
2019/06/20 11:48 EDT    2.69 -99.99 -999 -999 -999 -99.9 -99.9 -999.9 -9.9 -9.999 -99.9 -99.99 -9.99
2019/06/20 11:54 EDT    2.71 -99.99 -999 -999 -999 -99.9 -99.9 -999.9 -9.9 -9.999 -99.9 -99.99 -9.99
2019/06/20 12:00 EDT    2.72 -99.99 -999 -999 -999 -99.9 -99.9 -999.9 -9.9 -9.999 -99.9 -99.99 -9.99
2019/06/20 12:06 EDT    2.73 -99.99 -999 -999 -999 -99.9 -99.9 -999.9 -9.9 -9.999 -99.9 -99.99 -9.99
2019/06/20 12:12 EDT    2.74 -99.99 -999 -999 -999 -99.9 -99.9 -999.9 -9.9 -9.999 -99.9 -99.99 -9.99
2019/06/20 12:18 EDT    2.74 -99.99 -999 -999 -999 -99.9 -99.9 -999.9 -9.9 -9.999 -99.9 -99.99 -9.99
2019/06/20 12:24 EDT    2.74 -99.99 -999 -999 -999 -99.9 -99.9 -999.9 -9.9 -9.999 -99.9 -99.99 -9.99

Revised: 08/08/2018
NOAA / National Ocean Service
Web site owner: Center for Operational Oceanographic Products and Services